NOAA Web Site Link Tides and Currents Home Page Transparent placeholder image

PORTS® Data Listing: 8531680 Sandy Hook, NJ

CO-OPS RAW PORTS DATA

************************      PRELIMINARY DATA      ************************** 

     THIS RAW DATA HAS NOT BEEN SUBJECT TO THE NATIONAL OCEAN SERVICE'S        
     QUALITY CONTROL OR QUALITY ASSURANCE PROCEDURES AND DOES NOT MEET         
     THE CRITERIA AND STANDARDS OF OFFICIAL NATIONAL OCEAN SERVICE             
     DATA.  IT IS RELEASED FOR LIMITED PUBLIC USE AS PRELIMINARY DATA TO       
     BE USED ONLY WITH APPROPRIATE CAUTION.                                    

************************      PRELIMINARY DATA      ************************** 


       CD   -   Calendar date
       T    -   Time
       TZ   -   Timezone
       PW   -   Predicted water level (feet above MLLW)
       OW   -   Observed water level (feet above MLLW)
       WS   -   Wind speed (knots)
       WD   -   Wind direction (degrees true)
       WG   -   Wind gust (knots)
       AT   -   Air temperature (degrees farenheit)
       WT   -   Water temperature (degrees farenheit)
       AP   -   Air pressure (millibars)
       SA   -   Salinty (PSU - Practical Salinity Units)
       SG   -   Specific gravity
       RH   -   Relative humidity
       AG   -   Air gap (feet)
       VI   -   Visibility (nautical miles)

       ** NOTE **
       A variable that has its data fields filled with "9"s, indicates that
       data was not collected for that sample period.
       **********


STATION NAME: Sandy Hook (8531680)
****************************************************************************************************
    CD       T    TZ    PW     OW    WS   WD   WG    AT    WT    AP    SA    SG     RH    AG   VI
****************************************************************************************************
2019/05/18 22:24 EDT    4.75   5.33   10  176   12  61.0  62.2 1019.6 -9.9 -9.999 -99.9 -99.99 -9.99
2019/05/18 22:30 EDT    4.62   5.19   11  171   13  61.0  62.2 1019.6 -9.9 -9.999 -99.9 -99.99 -9.99
2019/05/18 22:36 EDT    4.48   5.04   11  170   13  61.0  62.2 1019.6 -9.9 -9.999 -99.9 -99.99 -9.99
2019/05/18 22:42 EDT    4.34   4.89   10  177   13  60.8  62.2 1019.6 -9.9 -9.999 -99.9 -99.99 -9.99
2019/05/18 22:48 EDT    4.20   4.74    9  186   12  61.0  62.2 1019.4 -9.9 -9.999 -99.9 -99.99 -9.99
2019/05/18 22:54 EDT    4.06   4.60   12  197   14  61.0  62.2 1019.3 -9.9 -9.999 -99.9 -99.99 -9.99
2019/05/18 23:00 EDT    3.92   4.41   12  191   16  61.2  62.2 1019.5 -9.9 -9.999 -99.9 -99.99 -9.99
2019/05/18 23:06 EDT    3.77   4.28   11  178   14  61.2  62.2 1019.6 -9.9 -9.999 -99.9 -99.99 -9.99
2019/05/18 23:12 EDT    3.63   4.11    8  168   12  61.0  62.2 1019.8 -9.9 -9.999 -99.9 -99.99 -9.99
2019/05/18 23:18 EDT    3.48   3.93    1   29    9  60.6  62.2 1019.9 -9.9 -9.999 -99.9 -99.99 -9.99
2019/05/18 23:24 EDT    3.33   3.78    2   32    5  60.4  62.2 1020.0 -9.9 -9.999 -99.9 -99.99 -9.99
2019/05/18 23:30 EDT    3.19   3.63    2    8    5  60.4  62.2 1020.1 -9.9 -9.999 -99.9 -99.99 -9.99
2019/05/18 23:36 EDT    3.04   3.47    4  230    5  60.6  62.2 1019.8 -9.9 -9.999 -99.9 -99.99 -9.99
2019/05/18 23:42 EDT    2.89   3.30    9  204   11  60.6  62.2 1019.7 -9.9 -9.999 -99.9 -99.99 -9.99
2019/05/18 23:48 EDT    2.75   3.15   11  195   13  60.8  62.2 1019.5 -9.9 -9.999 -99.9 -99.99 -9.99
2019/05/18 23:54 EDT    2.60   3.01   11  193   14  60.8  62.2 1019.7 -9.9 -9.999 -99.9 -99.99 -9.99
2019/05/19 00:00 EDT    2.45   2.85    9  193   12  60.6  62.2 1019.8 -9.9 -9.999 -99.9 -99.99 -9.99
2019/05/19 00:06 EDT    2.31   2.69    9  204   12  60.4  62.2 1019.9 -9.9 -9.999 -99.9 -99.99 -9.99
2019/05/19 00:12 EDT    2.17   2.54    8  198   11  60.3  62.2 1019.9 -9.9 -9.999 -99.9 -99.99 -9.99
2019/05/19 00:18 EDT    2.02   2.41    8  194   11  60.3  62.2 1019.7 -9.9 -9.999 -99.9 -99.99 -9.99
2019/05/19 00:24 EDT    1.88   2.27    8  192   10  60.1  62.2 1019.6 -9.9 -9.999 -99.9 -99.99 -9.99
2019/05/19 00:30 EDT    1.74   2.11    8  196   10  60.3  62.2 1019.6 -9.9 -9.999 -99.9 -99.99 -9.99
2019/05/19 00:36 EDT    1.60   1.97    8  195    9  60.3  62.1 1019.6 -9.9 -9.999 -99.9 -99.99 -9.99
2019/05/19 00:42 EDT    1.47   1.85    8  205    9  60.3  62.1 1019.8 -9.9 -9.999 -99.9 -99.99 -9.99
2019/05/19 00:48 EDT    1.33   1.72    6  204   10  60.1  62.1 1019.7 -9.9 -9.999 -99.9 -99.99 -9.99
2019/05/19 00:54 EDT    1.20   1.59    6  196    8  60.3  62.1 1019.7 -9.9 -9.999 -99.9 -99.99 -9.99
2019/05/19 01:00 EDT    1.07   1.47    6  193   11  60.4  62.1 1019.8 -9.9 -9.999 -99.9 -99.99 -9.99
2019/05/19 01:06 EDT    0.94   1.35    7  189    9  60.4  62.1 1019.8 -9.9 -9.999 -99.9 -99.99 -9.99
2019/05/19 01:12 EDT    0.81   1.24    8  182   10  60.4  62.1 1019.7 -9.9 -9.999 -99.9 -99.99 -9.99
2019/05/19 01:18 EDT    0.69   1.14    8  183    9  60.4  62.1 1019.8 -9.9 -9.999 -99.9 -99.99 -9.99
2019/05/19 01:24 EDT    0.57   1.04    6  185    8  60.4  62.1 1019.9 -9.9 -9.999 -99.9 -99.99 -9.99
2019/05/19 01:30 EDT    0.46   0.96    7  187    8  60.4  62.1 1019.9 -9.9 -9.999 -99.9 -99.99 -9.99
2019/05/19 01:36 EDT    0.35   0.84    6  197    9  60.6  62.1 1019.9 -9.9 -9.999 -99.9 -99.99 -9.99
2019/05/19 01:42 EDT    0.24   0.75    6  202    8  60.8  62.1 1019.8 -9.9 -9.999 -99.9 -99.99 -9.99
2019/05/19 01:48 EDT    0.15   0.67    7  213    9  60.8  62.1 1019.8 -9.9 -9.999 -99.9 -99.99 -9.99
2019/05/19 01:54 EDT    0.05   0.59    5  215    6  60.6  62.1 1019.8 -9.9 -9.999 -99.9 -99.99 -9.99
2019/05/19 02:00 EDT   -0.04   0.52    5  230    7  60.6  62.1 1019.8 -9.9 -9.999 -99.9 -99.99 -9.99
2019/05/19 02:06 EDT   -0.12   0.40    3  237    5  60.6  62.1 1019.8 -9.9 -9.999 -99.9 -99.99 -9.99
2019/05/19 02:12 EDT   -0.19   0.38    2  222    4  60.6  62.1 1019.7 -9.9 -9.999 -99.9 -99.99 -9.99
2019/05/19 02:18 EDT   -0.26   0.30    2  225    4  60.4  62.1 1019.8 -9.9 -9.999 -99.9 -99.99 -9.99
2019/05/19 02:24 EDT   -0.31   0.26    4  230    4  60.6  62.1 1019.6 -9.9 -9.999 -99.9 -99.99 -9.99
2019/05/19 02:30 EDT   -0.36   0.23    4  237    5  60.6  62.1 1019.7 -9.9 -9.999 -99.9 -99.99 -9.99
2019/05/19 02:36 EDT   -0.41   0.21    4  238    6  60.6  62.1 1019.8 -9.9 -9.999 -99.9 -99.99 -9.99
2019/05/19 02:42 EDT   -0.44   0.18    4  226    6  60.4  61.9 1019.7 -9.9 -9.999 -99.9 -99.99 -9.99
2019/05/19 02:48 EDT   -0.46   0.16    4  218    5  60.6  61.9 1019.6 -9.9 -9.999 -99.9 -99.99 -9.99
2019/05/19 02:54 EDT   -0.48   0.17    5  229    6  60.6  61.7 1019.7 -9.9 -9.999 -99.9 -99.99 -9.99
2019/05/19 03:00 EDT   -0.48   0.18    3  237    6  60.6  61.3 1019.8 -9.9 -9.999 -99.9 -99.99 -9.99
2019/05/19 03:06 EDT   -0.48   0.19    2  299    3  60.4  61.3 1019.9 -9.9 -9.999 -99.9 -99.99 -9.99
2019/05/19 03:12 EDT   -0.46   0.20    1   10    2  60.3  61.2 1019.9 -9.9 -9.999 -99.9 -99.99 -9.99
2019/05/19 03:18 EDT   -0.44   0.23    1   42    2  59.7  61.0 1019.8 -9.9 -9.999 -99.9 -99.99 -9.99
2019/05/19 03:24 EDT   -0.41   0.26    2   34    2  59.5  60.6 1019.8 -9.9 -9.999 -99.9 -99.99 -9.99
2019/05/19 03:30 EDT   -0.37   0.30    1  117    2  59.7  60.4 1019.7 -9.9 -9.999 -99.9 -99.99 -9.99
2019/05/19 03:36 EDT   -0.31   0.35    2  181    2  60.1  60.4 1019.7 -9.9 -9.999 -99.9 -99.99 -9.99
2019/05/19 03:42 EDT   -0.25   0.42    3  194    4  60.6  60.3 1019.7 -9.9 -9.999 -99.9 -99.99 -9.99
2019/05/19 03:48 EDT   -0.19   0.50    3  205    4  60.6  60.1 1019.7 -9.9 -9.999 -99.9 -99.99 -9.99
2019/05/19 03:54 EDT   -0.11   0.59    2  205    4  60.6  60.1 1019.8 -9.9 -9.999 -99.9 -99.99 -9.99
2019/05/19 04:00 EDT   -0.03   0.70    4  223    4  60.3  59.9 1019.9 -9.9 -9.999 -99.9 -99.99 -9.99
2019/05/19 04:06 EDT    0.07   0.79    1  127    4  59.7  59.9 1019.9 -9.9 -9.999 -99.9 -99.99 -9.99
2019/05/19 04:12 EDT    0.17   0.93    2  129    2  59.4  59.9 1020.1 -9.9 -9.999 -99.9 -99.99 -9.99
2019/05/19 04:18 EDT    0.27   1.04    2   88    4  58.3  59.7 1020.0 -9.9 -9.999 -99.9 -99.99 -9.99
2019/05/19 04:24 EDT    0.38   1.17    0   81    3  57.9  59.7 1020.2 -9.9 -9.999 -99.9 -99.99 -9.99
2019/05/19 04:30 EDT    0.50   1.28    0   42    1  58.1  59.7 1020.2 -9.9 -9.999 -99.9 -99.99 -9.99
2019/05/19 04:36 EDT    0.62   1.43    0   44    1  58.1  59.5 1020.2 -9.9 -9.999 -99.9 -99.99 -9.99
2019/05/19 04:42 EDT    0.74   1.52    0   23    1  58.3  59.5 1019.9 -9.9 -9.999 -99.9 -99.99 -9.99
2019/05/19 04:48 EDT    0.87   1.65    3  115    4  57.4  59.5 1019.9 -9.9 -9.999 -99.9 -99.99 -9.99
2019/05/19 04:54 EDT    1.01   1.77    3  116    4  57.2  59.5 1019.8 -9.9 -9.999 -99.9 -99.99 -9.99
2019/05/19 05:00 EDT    1.14   1.87    3  115    4  57.6  59.4 1019.9 -9.9 -9.999 -99.9 -99.99 -9.99
2019/05/19 05:06 EDT    1.28   1.99    4  110    5  56.8  59.4 1019.8 -9.9 -9.999 -99.9 -99.99 -9.99
2019/05/19 05:12 EDT    1.42   2.12    4  111    5  56.3  59.4 1019.9 -9.9 -9.999 -99.9 -99.99 -9.99
2019/05/19 05:18 EDT    1.57   2.25    3  135    7  56.3  59.4 1020.0 -9.9 -9.999 -99.9 -99.99 -9.99
2019/05/19 05:24 EDT    1.71   2.38    1  235    3  56.5  59.4 1020.3 -9.9 -9.999 -99.9 -99.99 -9.99
2019/05/19 05:30 EDT    1.85   2.54    1  199    2  57.0  59.4 1020.2 -9.9 -9.999 -99.9 -99.99 -9.99
2019/05/19 05:36 EDT    2.00   2.70    2  229    3  57.2  59.4 1020.2 -9.9 -9.999 -99.9 -99.99 -9.99
2019/05/19 05:42 EDT    2.14   2.86    1  242    3  57.6  59.4 1020.1 -9.9 -9.999 -99.9 -99.99 -9.99
2019/05/19 05:48 EDT    2.28   2.97    0  241    1  57.6  59.4 1020.1 -9.9 -9.999 -99.9 -99.99 -9.99
2019/05/19 05:54 EDT    2.43   3.13    1  182    2  57.6  59.4 1020.1 -9.9 -9.999 -99.9 -99.99 -9.99
2019/05/19 06:00 EDT    2.57   3.26    1  134    2  57.7  59.4 1020.1 -9.9 -9.999 -99.9 -99.99 -9.99
2019/05/19 06:06 EDT    2.71   3.39    1   76    2  57.7  59.5 1020.1 -9.9 -9.999 -99.9 -99.99 -9.99
2019/05/19 06:12 EDT    2.85   3.47    2   40    2  57.7  59.5 1020.2 -9.9 -9.999 -99.9 -99.99 -9.99
2019/05/19 06:18 EDT    2.99   3.59    2   11    3  57.7  59.4 1020.5 -9.9 -9.999 -99.9 -99.99 -9.99
2019/05/19 06:24 EDT    3.12   3.71    1  325    2  58.1  59.4 1020.5 -9.9 -9.999 -99.9 -99.99 -9.99
2019/05/19 06:30 EDT    3.26   3.81    4  302    4  58.5  59.4 1020.8 -9.9 -9.999 -99.9 -99.99 -9.99
2019/05/19 06:36 EDT    3.39   3.91    4  299    4  58.8  59.4 1020.9 -9.9 -9.999 -99.9 -99.99 -9.99
2019/05/19 06:42 EDT    3.51   4.03    4  311    4  59.0  59.4 1020.8 -9.9 -9.999 -99.9 -99.99 -9.99
2019/05/19 06:48 EDT    3.64   4.13    3  269    4  59.5  59.4 1020.8 -9.9 -9.999 -99.9 -99.99 -9.99
2019/05/19 06:54 EDT    3.76   4.21    1  212    3  59.5  59.4 1020.6 -9.9 -9.999 -99.9 -99.99 -9.99
2019/05/19 07:00 EDT    3.88   4.34    5  185    6  59.5  59.4 1020.6 -9.9 -9.999 -99.9 -99.99 -9.99
2019/05/19 07:06 EDT    3.99   4.43    7  158    7  59.7  59.4 1020.3 -9.9 -9.999 -99.9 -99.99 -9.99
2019/05/19 07:12 EDT    4.11   4.50    7  167    9  59.9  59.4 1020.3 -9.9 -9.999 -99.9 -99.99 -9.99
2019/05/19 07:18 EDT    4.21   4.63    7  163    8  60.1  59.4 1020.4 -9.9 -9.999 -99.9 -99.99 -9.99
2019/05/19 07:24 EDT    4.31   4.71   10  176   11  60.1  59.4 1020.3 -9.9 -9.999 -99.9 -99.99 -9.99
2019/05/19 07:30 EDT    4.41   4.77    7  135   10  59.7  59.2 1020.1 -9.9 -9.999 -99.9 -99.99 -9.99
2019/05/19 07:36 EDT    4.50   4.92    4  164    7  59.7  58.8 1020.4 -9.9 -9.999 -99.9 -99.99 -9.99
2019/05/19 07:42 EDT    4.59   5.02    7  168    9  59.2  58.8 1020.2 -9.9 -9.999 -99.9 -99.99 -9.99
2019/05/19 07:48 EDT    4.67   5.08    9  159   11  60.1  58.6 1019.9 -9.9 -9.999 -99.9 -99.99 -9.99
2019/05/19 07:54 EDT    4.75   5.16    6  179    9  60.1  58.6 1020.2 -9.9 -9.999 -99.9 -99.99 -9.99
2019/05/19 08:00 EDT    4.82   5.27    7  168    9  59.5  58.6 1020.1 -9.9 -9.999 -99.9 -99.99 -9.99
2019/05/19 08:06 EDT    4.88   5.34    9  175   10  59.7  58.8 1020.0 -9.9 -9.999 -99.9 -99.99 -9.99
2019/05/19 08:12 EDT    4.94   5.39    5  193   11  59.2  58.8 1020.1 -9.9 -9.999 -99.9 -99.99 -9.99
2019/05/19 08:18 EDT    4.99   5.45    6  176    7  59.0  58.8 1020.1 -9.9 -9.999 -99.9 -99.99 -9.99
2019/05/19 08:24 EDT    5.03   5.53    7  180    8  59.5  58.8 1019.9 -9.9 -9.999 -99.9 -99.99 -9.99
2019/05/19 08:30 EDT    5.06   5.58    9  175    9  60.1  59.0 1019.7 -9.9 -9.999 -99.9 -99.99 -9.99
2019/05/19 08:36 EDT    5.09   5.64    7  199    9  61.0  59.0 1019.9 -9.9 -9.999 -99.9 -99.99 -9.99
2019/05/19 08:42 EDT    5.11   5.68    5  207    7  61.3  59.2 1020.0 -9.9 -9.999 -99.9 -99.99 -9.99
2019/05/19 08:48 EDT    5.12   5.75    6  216    7  61.5  59.4 1020.1 -9.9 -9.999 -99.9 -99.99 -9.99
2019/05/19 08:54 EDT    5.12   5.78    6  226    7  61.5  59.4 1020.3 -9.9 -9.999 -99.9 -99.99 -9.99
2019/05/19 09:00 EDT    5.12   5.81    6  263    7  61.2  59.5 1020.4 -9.9 -9.999 -99.9 -99.99 -9.99
2019/05/19 09:06 EDT    5.10   5.82    2  275    6  60.8  59.7 1020.4 -9.9 -9.999 -99.9 -99.99 -9.99
2019/05/19 09:12 EDT    5.08   5.84    1  277    2  60.1  59.7 1020.4 -9.9 -9.999 -99.9 -99.99 -9.99
2019/05/19 09:18 EDT    5.05   5.79    0  203    1  60.8  59.7 1020.3 -9.9 -9.999 -99.9 -99.99 -9.99
2019/05/19 09:24 EDT    5.02   5.77    4  186    5  62.1  59.7 1020.3 -9.9 -9.999 -99.9 -99.99 -9.99
2019/05/19 09:30 EDT    4.97   5.72   10  172   12  63.1  59.7 1020.0 -9.9 -9.999 -99.9 -99.99 -9.99
2019/05/19 09:36 EDT    4.92   5.68   14  177   15  63.5  59.7 1020.0 -9.9 -9.999 -99.9 -99.99 -9.99
2019/05/19 09:42 EDT    4.86   5.61   12  172   14  62.4  59.7 1019.9 -9.9 -9.999 -99.9 -99.99 -9.99
2019/05/19 09:48 EDT    4.79   5.54   13  162   14  62.4  59.7 1019.7 -9.9 -9.999 -99.9 -99.99 -9.99
2019/05/19 09:54 EDT    4.72   5.45   13  156   15  62.1  59.7 1019.6 -9.9 -9.999 -99.9 -99.99 -9.99
2019/05/19 10:00 EDT    4.64   5.39   14  157   17  61.7  59.7 1019.4 -9.9 -9.999 -99.9 -99.99 -9.99
2019/05/19 10:06 EDT    4.56   5.31   14  158   17  61.2  59.7 1019.4 -9.9 -9.999 -99.9 -99.99 -9.99
2019/05/19 10:12 EDT    4.47   5.20   16  162   20  61.0  59.7 1019.3 -9.9 -9.999 -99.9 -99.99 -9.99
2019/05/19 10:18 EDT    4.37   5.09   15  163   18  61.0  59.7 1019.2 -9.9 -9.999 -99.9 -99.99 -9.99
2019/05/19 10:24 EDT    4.27   5.01   15  164   18  61.9  59.7 1019.2 -9.9 -9.999 -99.9 -99.99 -9.99
2019/05/19 10:30 EDT    4.17   4.88   15  162   19  62.6  59.7 1019.1 -9.9 -9.999 -99.9 -99.99 -9.99
2019/05/19 10:36 EDT    4.06   4.75   15  160   18  62.2  59.9 1019.1 -9.9 -9.999 -99.9 -99.99 -9.99
2019/05/19 10:42 EDT    3.95   4.63   15  161   19  62.4  59.9 1019.0 -9.9 -9.999 -99.9 -99.99 -9.99
2019/05/19 10:48 EDT    3.83   4.51   15  160   18  62.6  59.9 1019.0 -9.9 -9.999 -99.9 -99.99 -9.99
2019/05/19 10:54 EDT    3.72   4.39   13  161   17  62.4  59.9 1019.1 -9.9 -9.999 -99.9 -99.99 -9.99
2019/05/19 11:00 EDT    3.60   4.25   13  158   17  62.8  59.9 1019.1 -9.9 -9.999 -99.9 -99.99 -9.99
2019/05/19 11:06 EDT    3.48   4.13   12  149   15  63.0  59.9 1019.1 -9.9 -9.999 -99.9 -99.99 -9.99
2019/05/19 11:12 EDT    3.36   4.03   11  153   14  63.0  59.9 1019.1 -9.9 -9.999 -99.9 -99.99 -9.99
2019/05/19 11:18 EDT    3.24   3.87   11  150   15  63.0  60.1 1019.2 -9.9 -9.999 -99.9 -99.99 -9.99
2019/05/19 11:24 EDT    3.11   3.73   10  147   13  63.1  60.1 1019.1 -9.9 -9.999 -99.9 -99.99 -9.99
2019/05/19 11:30 EDT    2.99   3.62   12  147   17  63.1  60.1 1019.0 -9.9 -9.999 -99.9 -99.99 -9.99
2019/05/19 11:36 EDT    2.87   3.49   12  149   16  63.1  60.1 1019.1 -9.9 -9.999 -99.9 -99.99 -9.99
2019/05/19 11:42 EDT    2.74   3.33   15  148   18  63.3  60.1 1019.0 -9.9 -9.999 -99.9 -99.99 -9.99
2019/05/19 11:48 EDT    2.62   3.19   11  155   17  64.0  60.1 1019.1 -9.9 -9.999 -99.9 -99.99 -9.99
2019/05/19 11:54 EDT    2.50   3.06   13  146   17  63.9  60.1 1018.9 -9.9 -9.999 -99.9 -99.99 -9.99
2019/05/19 12:00 EDT    2.38   2.91   12  146   18  64.0  59.9 1018.8 -9.9 -9.999 -99.9 -99.99 -9.99
2019/05/19 12:06 EDT    2.26   2.77   14  147   17  63.7  59.7 1018.6 -9.9 -9.999 -99.9 -99.99 -9.99
2019/05/19 12:12 EDT    2.14   2.64   15  148   19  63.9  59.7 1018.6 -9.9 -9.999 -99.9 -99.99 -9.99
2019/05/19 12:18 EDT    2.02   2.52   15  147   18  64.0  59.5 1018.5 -9.9 -9.999 -99.9 -99.99 -9.99
2019/05/19 12:24 EDT    1.90   2.39   15  149   19  64.2  59.7 1018.4 -9.9 -9.999 -99.9 -99.99 -9.99
2019/05/19 12:30 EDT    1.79   2.27   18  156   22  63.9  60.1 1018.2 -9.9 -9.999 -99.9 -99.99 -9.99
2019/05/19 12:36 EDT    1.67   2.15   16  152   19  64.0  60.3 1018.2 -9.9 -9.999 -99.9 -99.99 -9.99
2019/05/19 12:42 EDT    1.56   2.05   15  148   20  64.0  60.4 1018.1 -9.9 -9.999 -99.9 -99.99 -9.99
2019/05/19 12:48 EDT    1.44   1.94   13  150   19  64.4  60.6 1018.1 -9.9 -9.999 -99.9 -99.99 -9.99
2019/05/19 12:54 EDT    1.33   1.83   15  150   20  64.4  60.6 1018.1 -9.9 -9.999 -99.9 -99.99 -9.99
2019/05/19 13:00 EDT    1.23   1.72   16  150   20  63.9  60.8 1017.9 -9.9 -9.999 -99.9 -99.99 -9.99
2019/05/19 13:06 EDT    1.12   1.64   16  155   20  64.0  60.6 1017.9 -9.9 -9.999 -99.9 -99.99 -9.99
2019/05/19 13:12 EDT    1.01   1.52   16  152   21  64.4  60.6 1018.0 -9.9 -9.999 -99.9 -99.99 -9.99
2019/05/19 13:18 EDT    0.91   1.43   17  150   22  65.1  61.0 1017.9 -9.9 -9.999 -99.9 -99.99 -9.99
2019/05/19 13:24 EDT    0.81   1.37   16  153   20  64.8  61.0 1017.9 -9.9 -9.999 -99.9 -99.99 -9.99
2019/05/19 13:30 EDT    0.71   1.27   17  150   21  64.8  61.2 1017.7 -9.9 -9.999 -99.9 -99.99 -9.99
2019/05/19 13:36 EDT    0.62   1.17   17  153   21  64.8  61.2 1017.6 -9.9 -9.999 -99.9 -99.99 -9.99
2019/05/19 13:42 EDT    0.53   1.07   15  150   21  64.8  61.3 1017.6 -9.9 -9.999 -99.9 -99.99 -9.99
2019/05/19 13:48 EDT    0.44   1.00   18  150   22  64.6  61.3 1017.6 -9.9 -9.999 -99.9 -99.99 -9.99
2019/05/19 13:54 EDT    0.36   0.92   19  146   23  64.4  61.3 1017.4 -9.9 -9.999 -99.9 -99.99 -9.99
2019/05/19 14:00 EDT    0.28   0.83   19  149   22  64.4  61.5 1017.3 -9.9 -9.999 -99.9 -99.99 -9.99
2019/05/19 14:06 EDT    0.21   0.76   19  149   24  64.8  61.7 1017.3 -9.9 -9.999 -99.9 -99.99 -9.99
2019/05/19 14:12 EDT    0.14   0.68   16  144   23  64.8  61.7 1017.3 -9.9 -9.999 -99.9 -99.99 -9.99
2019/05/19 14:18 EDT    0.08   0.63   15  143   21  65.7  61.9 1017.2 -9.9 -9.999 -99.9 -99.99 -9.99
2019/05/19 14:24 EDT    0.02   0.57   13  141   18  65.8  61.9 1017.1 -9.9 -9.999 -99.9 -99.99 -9.99
2019/05/19 14:30 EDT   -0.03   0.52   12  143   18  66.6  61.9 1017.0 -9.9 -9.999 -99.9 -99.99 -9.99
2019/05/19 14:36 EDT   -0.08   0.49   13  143   16  66.6  62.1 1016.9 -9.9 -9.999 -99.9 -99.99 -9.99
2019/05/19 14:42 EDT   -0.11   0.44   13  147   17  67.3  61.7 1016.8 -9.9 -9.999 -99.9 -99.99 -9.99
2019/05/19 14:48 EDT   -0.14   0.43   14  154   17  68.5  61.5 1016.8 -9.9 -9.999 -99.9 -99.99 -9.99
2019/05/19 14:54 EDT   -0.16   0.41   15  154   18  69.4  61.5 1016.6 -9.9 -9.999 -99.9 -99.99 -9.99
2019/05/19 15:00 EDT   -0.18   0.40   13  149   17  69.3  61.5 1016.6 -9.9 -9.999 -99.9 -99.99 -9.99
2019/05/19 15:06 EDT   -0.18   0.42   12  149   16  70.0  61.7 1016.6 -9.9 -9.999 -99.9 -99.99 -9.99
2019/05/19 15:12 EDT   -0.18   0.41   13  153   17  70.9  61.7 1016.6 -9.9 -9.999 -99.9 -99.99 -9.99
2019/05/19 15:18 EDT   -0.16   0.45   13  156   17  70.9  61.7 1016.3 -9.9 -9.999 -99.9 -99.99 -9.99
2019/05/19 15:24 EDT   -0.14   0.45   16  156   20  70.0  61.9 1016.2 -9.9 -9.999 -99.9 -99.99 -9.99
2019/05/19 15:30 EDT   -0.11   0.48   17  158   22  69.1  62.1 1016.2 -9.9 -9.999 -99.9 -99.99 -9.99
2019/05/19 15:36 EDT   -0.07   0.54   15  156   19  69.3  62.1 1016.1 -9.9 -9.999 -99.9 -99.99 -9.99
2019/05/19 15:42 EDT   -0.02   0.59   15  156   19  69.4  62.1 1015.9 -9.9 -9.999 -99.9 -99.99 -9.99
2019/05/19 15:48 EDT    0.04   0.67   16  155   20  69.8  62.2 1015.8 -9.9 -9.999 -99.9 -99.99 -9.99
2019/05/19 15:54 EDT    0.10   0.71   16  156   20  69.8  62.2 1015.6 -9.9 -9.999 -99.9 -99.99 -9.99
2019/05/19 16:00 EDT    0.18   0.82   17  157   21  70.3  62.4 1015.4 -9.9 -9.999 -99.9 -99.99 -9.99
2019/05/19 16:06 EDT    0.26   0.91   17  155   22  71.1  62.2 1015.2 -9.9 -9.999 -99.9 -99.99 -9.99
2019/05/19 16:12 EDT    0.35   1.04   17  159   24  71.1  62.2 1015.1 -9.9 -9.999 -99.9 -99.99 -9.99
2019/05/19 16:18 EDT    0.45   1.14   20  158   24  70.7  62.2 1015.0 -9.9 -9.999 -99.9 -99.99 -9.99
2019/05/19 16:24 EDT    0.56   1.25   17  157   24  71.1  62.2 1015.0 -9.9 -9.999 -99.9 -99.99 -9.99
2019/05/19 16:30 EDT    0.67   1.39   17  161   20  71.6  61.9 1014.9 -9.9 -9.999 -99.9 -99.99 -9.99
2019/05/19 16:36 EDT    0.79   1.53   17  164   20  71.2  61.9 1015.0 -9.9 -9.999 -99.9 -99.99 -9.99
2019/05/19 16:42 EDT    0.92   1.66   19  168   21  71.2  62.4 1015.0 -9.9 -9.999 -99.9 -99.99 -9.99
2019/05/19 16:48 EDT    1.05   1.80   17  165   20  71.2  62.2 1015.1 -9.9 -9.999 -99.9 -99.99 -9.99
2019/05/19 16:54 EDT    1.18   1.95   18  168   20  71.2  61.5 1015.0 -9.9 -9.999 -99.9 -99.99 -9.99
2019/05/19 17:00 EDT    1.32   2.11   17  170   19  71.8  61.3 1015.0 -9.9 -9.999 -99.9 -99.99 -9.99
2019/05/19 17:06 EDT    1.47   2.26   13  176   19  71.2  61.0 1015.0 -9.9 -9.999 -99.9 -99.99 -9.99
2019/05/19 17:12 EDT    1.61   2.42   14  169   17  71.6  60.8 1015.0 -9.9 -9.999 -99.9 -99.99 -9.99
2019/05/19 17:18 EDT    1.76   2.59   18  180   19  73.2  60.6 1015.0 -9.9 -9.999 -99.9 -99.99 -9.99
2019/05/19 17:24 EDT    1.92   2.74   16  181   18  73.0  60.3 1014.9 -9.9 -9.999 -99.9 -99.99 -9.99
2019/05/19 17:30 EDT    2.07   2.92   10  167   18  71.8  59.7 1014.9 -9.9 -9.999 -99.9 -99.99 -9.99
2019/05/19 17:36 EDT    2.22   3.03   13  180   15  72.0  59.5 1014.8 -9.9 -9.999 -99.9 -99.99 -9.99
2019/05/19 17:42 EDT    2.38   3.23   12  176   13  71.1  59.4 1014.8 -9.9 -9.999 -99.9 -99.99 -9.99
2019/05/19 17:48 EDT    2.54   3.36   15  177   17  72.5  59.4 1014.7 -9.9 -9.999 -99.9 -99.99 -9.99
2019/05/19 17:54 EDT    2.69   3.55   12  164   16  71.8  59.2 1014.7 -9.9 -9.999 -99.9 -99.99 -9.99
2019/05/19 18:00 EDT    2.85   3.64   11  161   13  71.8  59.0 1014.8 -9.9 -9.999 -99.9 -99.99 -9.99
2019/05/19 18:06 EDT    3.01   3.83   12  156   14  71.4  59.2 1014.7 -9.9 -9.999 -99.9 -99.99 -9.99
2019/05/19 18:12 EDT    3.16   3.97   12  158   15  71.1  59.2 1014.6 -9.9 -9.999 -99.9 -99.99 -9.99
2019/05/19 18:18 EDT    3.31   4.15   11  155   16  71.1  59.2 1014.5 -9.9 -9.999 -99.9 -99.99 -9.99
2019/05/19 18:24 EDT    3.46   4.29   11  163   13  71.2  59.4 1014.5 -9.9 -9.999 -99.9 -99.99 -9.99
2019/05/19 18:30 EDT    3.61   4.45   10  161   13  70.7  59.4 1014.5 -9.9 -9.999 -99.9 -99.99 -9.99
2019/05/19 18:36 EDT    3.76   4.57   10  170   13  70.9  59.4 1014.4 -9.9 -9.999 -99.9 -99.99 -9.99
2019/05/19 18:42 EDT    3.91   4.70   12  185   14  71.1  59.4 1014.4 -9.9 -9.999 -99.9 -99.99 -9.99
2019/05/19 18:48 EDT    4.05   4.82   12  182   14  70.5  59.4 1014.3 -9.9 -9.999 -99.9 -99.99 -9.99
2019/05/19 18:54 EDT    4.19   4.94   10  173   13  70.2  59.5 1014.2 -9.9 -9.999 -99.9 -99.99 -9.99
2019/05/19 19:00 EDT    4.33   5.03   11  176   13  70.3  59.7 1014.2 -9.9 -9.999 -99.9 -99.99 -9.99
2019/05/19 19:06 EDT    4.46   5.15   12  183   15  70.7  59.7 1014.3 -9.9 -9.999 -99.9 -99.99 -9.99
2019/05/19 19:12 EDT    4.59   5.29   13  182   15  70.3  59.7 1014.2 -9.9 -9.999 -99.9 -99.99 -9.99
2019/05/19 19:18 EDT    4.71   5.33   12  181   13  70.7  60.1 1014.2 -9.9 -9.999 -99.9 -99.99 -9.99
2019/05/19 19:24 EDT    4.84   5.46   11  179   14  70.2  60.4 1014.2 -9.9 -9.999 -99.9 -99.99 -9.99
2019/05/19 19:30 EDT    4.95   5.57   11  185   13  70.3  60.8 1014.2 -9.9 -9.999 -99.9 -99.99 -9.99
2019/05/19 19:36 EDT    5.07   5.65   12  183   14  70.5  61.2 1014.3 -9.9 -9.999 -99.9 -99.99 -9.99
2019/05/19 19:42 EDT    5.18   5.73   12  187   15  70.9  61.3 1014.2 -9.9 -9.999 -99.9 -99.99 -9.99
2019/05/19 19:48 EDT    5.28   5.82   11  191   16  70.5  61.3 1014.2 -9.9 -9.999 -99.9 -99.99 -9.99
2019/05/19 19:54 EDT    5.38   5.89   11  199   13  70.5  61.3 1014.3 -9.9 -9.999 -99.9 -99.99 -9.99
2019/05/19 20:00 EDT    5.47   5.97   12  200   15  70.7  61.3 1014.3 -9.9 -9.999 -99.9 -99.99 -9.99
2019/05/19 20:06 EDT    5.56   6.02   12  197   15  70.2  61.3 1014.3 -9.9 -9.999 -99.9 -99.99 -9.99
2019/05/19 20:12 EDT    5.64   6.08   11  194   14  70.7  61.3 1014.3 -9.9 -9.999 -99.9 -99.99 -9.99
2019/05/19 20:18 EDT    5.71   6.13   11  201   15  70.3  61.3 1014.3 -9.9 -9.999 -99.9 -99.99 -9.99
2019/05/19 20:24 EDT    5.78   6.18   12  206   17  70.0  61.3 1014.3 -9.9 -9.999 -99.9 -99.99 -9.99
2019/05/19 20:30 EDT    5.85   6.24    8  195   11  69.4  61.5 1014.1 -9.9 -9.999 -99.9 -99.99 -9.99
2019/05/19 20:36 EDT    5.90   6.28   11  198   16  70.2  61.5 1014.0 -9.9 -9.999 -99.9 -99.99 -9.99
2019/05/19 20:42 EDT    5.95   6.32   15  198   21  70.2  61.3 1013.8 -9.9 -9.999 -99.9 -99.99 -9.99
2019/05/19 20:48 EDT    5.99   6.36   16  196   20  70.5  61.5 1013.9 -9.9 -9.999 -99.9 -99.99 -9.99
2019/05/19 20:54 EDT    6.02   6.38   13  198   16  70.0  61.5 1014.0 -9.9 -9.999 -99.9 -99.99 -9.99
2019/05/19 21:00 EDT    6.04   6.42   12  197   17  69.6  61.5 1014.0 -9.9 -9.999 -99.9 -99.99 -9.99
2019/05/19 21:06 EDT    6.06   6.44   13  202   17  69.6  61.7 1014.1 -9.9 -9.999 -99.9 -99.99 -9.99
2019/05/19 21:12 EDT    6.06   6.47   15  204   20  70.2  61.9 1014.1 -9.9 -9.999 -99.9 -99.99 -9.99
2019/05/19 21:18 EDT    6.06   6.49   14  204   18  69.4  61.9 1014.2 -9.9 -9.999 -99.9 -99.99 -9.99
2019/05/19 21:24 EDT    6.05   6.49   12  201   15  68.9  61.9 1014.1 -9.9 -9.999 -99.9 -99.99 -9.99
2019/05/19 21:30 EDT    6.04   6.48   12  197   16  68.9  61.7 1014.1 -9.9 -9.999 -99.9 -99.99 -9.99
2019/05/19 21:36 EDT    6.01   6.49   15  203   18  69.6  61.9 1014.2 -9.9 -9.999 -99.9 -99.99 -9.99
2019/05/19 21:42 EDT    5.97   6.46   14  207   19  69.1  62.1 1014.4 -9.9 -9.999 -99.9 -99.99 -9.99
2019/05/19 21:48 EDT    5.93   6.44   13  208   16  69.6  62.1 1014.5 -9.9 -9.999 -99.9 -99.99 -9.99
2019/05/19 21:54 EDT    5.88   6.44   12  208   17  69.1  62.1 1014.6 -9.9 -9.999 -99.9 -99.99 -9.99
2019/05/19 22:00 EDT    5.82   6.37   12  211   16  69.3  62.1 1014.6 -9.9 -9.999 -99.9 -99.99 -9.99
2019/05/19 22:06 EDT    5.75   6.33   10  215   13  68.9  62.2 1014.7 -9.9 -9.999 -99.9 -99.99 -9.99
2019/05/19 22:12 EDT    5.68   6.29   11  216   12  68.7  62.2 1014.7 -9.9 -9.999 -99.9 -99.99 -9.99
2019/05/19 22:18 EDT    5.60   6.23    9  214   11  68.7  62.2 1014.7 -9.9 -9.999 -99.9 -99.99 -9.99
2019/05/19 22:24 EDT    5.51   6.15   10  219   13  69.1  62.2 1014.9 -9.9 -9.999 -99.9 -99.99 -9.99
2019/05/19 22:30 EDT    5.42   6.06    8  231   11  68.5  62.1 1014.9 -9.9 -9.999 -99.9 -99.99 -9.99
2019/05/19 22:36 EDT    5.32   5.94    8  218   11  68.4  62.1 1014.9 -9.9 -9.999 -99.9 -99.99 -9.99
2019/05/19 22:42 EDT    5.21   5.84    7  224    9  68.4  61.7 1014.8 -9.9 -9.999 -99.9 -99.99 -9.99
2019/05/19 22:48 EDT    5.10   5.74    7  216    9  68.7  61.7 1014.7 -9.9 -9.999 -99.9 -99.99 -9.99
2019/05/19 22:54 EDT    4.98   5.63    8  217   11  68.2  61.7 1014.8 -9.9 -9.999 -99.9 -99.99 -9.99
2019/05/19 23:00 EDT    4.86   5.49    8  214   10  68.5  61.7 1014.7 -9.9 -9.999 -99.9 -99.99 -9.99
2019/05/19 23:06 EDT    4.74   5.38    8  213   10  68.2  61.5 1014.7 -9.9 -9.999 -99.9 -99.99 -9.99
2019/05/19 23:12 EDT    4.61   5.28   19  284   23  67.1  61.5 1016.2 -9.9 -9.999 -99.9 -99.99 -9.99
2019/05/19 23:18 EDT    4.48   5.13   12  266   22  68.0  61.5 1015.7 -9.9 -9.999 -99.9 -99.99 -9.99
2019/05/19 23:24 EDT    4.35   4.96   10  267   13  67.5  61.5 1015.5 -9.9 -9.999 -99.9 -99.99 -9.99
2019/05/19 23:30 EDT    4.21   4.83    8  245   10  67.8  61.3 1015.4 -9.9 -9.999 -99.9 -99.99 -9.99
2019/05/19 23:36 EDT    4.07   4.72    9  240   11  68.0  61.3 1015.3 -9.9 -9.999 -99.9 -99.99 -9.99
2019/05/19 23:42 EDT    3.94   4.53    8  241   10  67.6  61.3 1015.2 -9.9 -9.999 -99.9 -99.99 -9.99
2019/05/19 23:48 EDT    3.80   4.34    8  219    9  67.3  61.3 1015.0 -9.9 -9.999 -99.9 -99.99 -9.99
2019/05/19 23:54 EDT    3.66   4.22    8  217   10  68.4  61.3 1014.8 -9.9 -9.999 -99.9 -99.99 -9.99
2019/05/20 00:00 EDT    3.51   4.03    7  205    9  68.0  61.3 1014.7 -9.9 -9.999 -99.9 -99.99 -9.99
2019/05/20 00:06 EDT    3.37   3.88    9  211   10  69.1  61.3 1014.7 -9.9 -9.999 -99.9 -99.99 -9.99
2019/05/20 00:12 EDT    3.23   3.75    8  211    9  69.3  61.3 1014.7 -9.9 -9.999 -99.9 -99.99 -9.99
2019/05/20 00:18 EDT    3.09   3.60    7  219    9  68.4  61.3 1014.7 -9.9 -9.999 -99.9 -99.99 -9.99
2019/05/20 00:24 EDT    2.95   3.46    8  212    8  68.9  61.3 1014.8 -9.9 -9.999 -99.9 -99.99 -9.99
2019/05/20 00:30 EDT    2.80   3.30    8  218    9  70.3  61.3 1014.7 -9.9 -9.999 -99.9 -99.99 -9.99
2019/05/20 00:36 EDT    2.66   3.19    6  215    8  69.3  61.3 1014.7 -9.9 -9.999 -99.9 -99.99 -9.99
2019/05/20 00:42 EDT    2.52   3.05    4  208    7  67.5  61.3 1014.6 -9.9 -9.999 -99.9 -99.99 -9.99
2019/05/20 00:48 EDT    2.38   2.91    4  211    5  68.0  61.3 1014.6 -9.9 -9.999 -99.9 -99.99 -9.99
2019/05/20 00:54 EDT    2.25   2.76    5  200    8  68.0  61.3 1014.5 -9.9 -9.999 -99.9 -99.99 -9.99
2019/05/20 01:00 EDT    2.11   2.64    9  189   10  68.5  61.3 1014.4 -9.9 -9.999 -99.9 -99.99 -9.99
2019/05/20 01:06 EDT    1.97   2.53   10  182   11  67.6  61.3 1014.3 -9.9 -9.999 -99.9 -99.99 -9.99
2019/05/20 01:12 EDT    1.84   2.39   10  190   11  69.1  61.3 1014.3 -9.9 -9.999 -99.9 -99.99 -9.99
2019/05/20 01:18 EDT    1.70   2.24   10  196   11  70.2  61.3 1014.4 -9.9 -9.999 -99.9 -99.99 -9.99
2019/05/20 01:24 EDT    1.57   2.13   10  195   11  69.8  61.3 1014.3 -9.9 -9.999 -99.9 -99.99 -9.99
2019/05/20 01:30 EDT    1.44   2.02   10  196   11  70.5  61.3 1014.4 -9.9 -9.999 -99.9 -99.99 -9.99
2019/05/20 01:36 EDT    1.31   1.89    8  194   10  71.1  61.3 1014.5 -9.9 -9.999 -99.9 -99.99 -9.99
2019/05/20 01:42 EDT    1.18   1.80    4  253    8  69.3  61.3 1015.1 -9.9 -9.999 -99.9 -99.99 -9.99
2019/05/20 01:48 EDT    1.06   1.67    3  228    4  68.2  61.3 1014.8 -9.9 -9.999 -99.9 -99.99 -9.99
2019/05/20 01:54 EDT    0.93   1.56    3  293    4  66.7  61.3 1014.8 -9.9 -9.999 -99.9 -99.99 -9.99
2019/05/20 02:00 EDT    0.81   1.46    4   14    6  68.4  61.3 1014.5 -9.9 -9.999 -99.9 -99.99 -9.99
2019/05/20 02:06 EDT    0.70   1.32    3   52    4  65.8  61.3 1014.5 -9.9 -9.999 -99.9 -99.99 -9.99
2019/05/20 02:12 EDT    0.59   1.21    5   56    5  64.6  61.2 1014.4 -9.9 -9.999 -99.9 -99.99 -9.99
2019/05/20 02:18 EDT    0.48   1.08    4  103    5  64.6  61.2 1014.3 -9.9 -9.999 -99.9 -99.99 -9.99
2019/05/20 02:24 EDT    0.37   0.99    4   83    6  64.9  61.2 1014.3 -9.9 -9.999 -99.9 -99.99 -9.99
2019/05/20 02:30 EDT    0.27   0.86    4   64    6  64.6  61.2 1014.1 -9.9 -9.999 -99.9 -99.99 -9.99
2019/05/20 02:36 EDT    0.18   0.78    6   97    7  63.5  61.2 1014.1 -9.9 -9.999 -99.9 -99.99 -9.99
2019/05/20 02:42 EDT    0.09   0.68    6  113    8  62.8  61.2 1014.1 -9.9 -9.999 -99.9 -99.99 -9.99
2019/05/20 02:48 EDT    0.01   0.60    6  116    8  62.6  61.0 1014.0 -9.9 -9.999 -99.9 -99.99 -9.99
2019/05/20 02:54 EDT   -0.07   0.53    5  100    8  61.9  61.0 1014.1 -9.9 -9.999 -99.9 -99.99 -9.99
2019/05/20 03:00 EDT   -0.14   0.48    2   94    6  61.9  61.0 1014.1 -9.9 -9.999 -99.9 -99.99 -9.99
2019/05/20 03:06 EDT   -0.20   0.42    4  120    5  61.5  61.0 1014.0 -9.9 -9.999 -99.9 -99.99 -9.99
2019/05/20 03:12 EDT   -0.25   0.35    5  129    6  61.3  61.0 1013.8 -9.9 -9.999 -99.9 -99.99 -9.99
2019/05/20 03:18 EDT   -0.30   0.29    4  117    6  61.0  61.0 1013.7 -9.9 -9.999 -99.9 -99.99 -9.99
2019/05/20 03:24 EDT   -0.34   0.25    4  114    6  60.8  61.0 1013.6 -9.9 -9.999 -99.9 -99.99 -9.99
2019/05/20 03:30 EDT   -0.36   0.21    4  116    6  61.0  61.0 1013.5 -9.9 -9.999 -99.9 -99.99 -9.99
2019/05/20 03:36 EDT   -0.39   0.19    4  121    5  61.3  61.0 1013.3 -9.9 -9.999 -99.9 -99.99 -9.99
2019/05/20 03:42 EDT   -0.40   0.20    2   51    4  61.7  61.0 1013.7 -9.9 -9.999 -99.9 -99.99 -9.99
2019/05/20 03:48 EDT   -0.40   0.16    2   83    4  61.2  61.0 1013.6 -9.9 -9.999 -99.9 -99.99 -9.99
2019/05/20 03:54 EDT   -0.39   0.14    3  112    4  61.0  61.0 1013.3 -9.9 -9.999 -99.9 -99.99 -9.99
2019/05/20 04:00 EDT   -0.38   0.18    3  105    4  61.3  61.0 1013.1 -9.9 -9.999 -99.9 -99.99 -9.99
2019/05/20 04:06 EDT   -0.35   0.19    2  115    4  61.3  60.8 1012.9 -9.9 -9.999 -99.9 -99.99 -9.99
2019/05/20 04:12 EDT   -0.32   0.19    4  128    6  63.5  60.8 1012.6 -9.9 -9.999 -99.9 -99.99 -9.99
2019/05/20 04:18 EDT   -0.27   0.22    3  123    5  63.1  60.8 1012.6 -9.9 -9.999 -99.9 -99.99 -9.99
2019/05/20 04:24 EDT   -0.22   0.28    4  144    5  64.0  60.8 1012.4 -9.9 -9.999 -99.9 -99.99 -9.99
2019/05/20 04:30 EDT   -0.16   0.34    3  139    5  64.2  60.8 1012.3 -9.9 -9.999 -99.9 -99.99 -9.99
2019/05/20 04:36 EDT   -0.09   0.39    3  136    4  64.2  60.6 1012.2 -9.9 -9.999 -99.9 -99.99 -9.99
2019/05/20 04:42 EDT   -0.01   0.47    5  146    6  65.7  60.6 1012.1 -9.9 -9.999 -99.9 -99.99 -9.99
2019/05/20 04:48 EDT    0.07   0.53    7  143    8  65.8  60.6 1011.9 -9.9 -9.999 -99.9 -99.99 -9.99
2019/05/20 04:54 EDT    0.16   0.65    7  155    9  66.6  60.6 1011.9 -9.9 -9.999 -99.9 -99.99 -9.99
2019/05/20 05:00 EDT    0.26   0.76    6  153    8  66.0  60.6 1011.8 -9.9 -9.999 -99.9 -99.99 -9.99
2019/05/20 05:06 EDT    0.37   0.84    7  151    8  65.5  60.4 1011.6 -9.9 -9.999 -99.9 -99.99 -9.99
2019/05/20 05:12 EDT    0.48   0.97    5  145    8  64.2  60.4 1011.6 -9.9 -9.999 -99.9 -99.99 -9.99
2019/05/20 05:18 EDT    0.59   1.11    6  144    7  63.7  60.3 1011.6 -9.9 -9.999 -99.9 -99.99 -9.99
2019/05/20 05:24 EDT    0.71   1.21    7  140    8  63.1  60.3 1011.5 -9.9 -9.999 -99.9 -99.99 -9.99
2019/05/20 05:30 EDT    0.83   1.34    7  153    9  64.6  60.3 1011.5 -9.9 -9.999 -99.9 -99.99 -9.99
2019/05/20 05:36 EDT    0.96   1.47    7  153   10  65.3  60.3 1011.4 -9.9 -9.999 -99.9 -99.99 -9.99
2019/05/20 05:42 EDT    1.09   1.63    6  149    9  64.6  60.1 1011.4 -9.9 -9.999 -99.9 -99.99 -9.99
2019/05/20 05:48 EDT    1.22   1.75    6  153    8  64.6  60.1 1011.4 -9.9 -9.999 -99.9 -99.99 -9.99
2019/05/20 05:54 EDT    1.36   1.91    5  170    7  64.2  60.1 1011.4 -9.9 -9.999 -99.9 -99.99 -9.99
2019/05/20 06:00 EDT    1.50   2.06    9  189   11  66.6  60.3 1011.4 -9.9 -9.999 -99.9 -99.99 -9.99
2019/05/20 06:06 EDT    1.63   2.21   10  203   12  67.3  60.3 1011.4 -9.9 -9.999 -99.9 -99.99 -9.99
2019/05/20 06:12 EDT    1.77   2.34   10  210   11  66.6  60.4 1011.6 -9.9 -9.999 -99.9 -99.99 -9.99
2019/05/20 06:18 EDT    1.91   2.48    8  204   11  66.2  60.3 1011.5 -9.9 -9.999 -99.9 -99.99 -9.99
2019/05/20 06:24 EDT    2.05   2.64    8  206    9  66.2  60.3 1011.5 -9.9 -9.999 -99.9 -99.99 -9.99
2019/05/20 06:30 EDT    2.18   2.79    6  247    8  65.7  60.3 1011.7 -9.9 -9.999 -99.9 -99.99 -9.99
2019/05/20 06:36 EDT    2.32   2.94    7  225    8  66.4  60.4 1011.7 -9.9 -9.999 -99.9 -99.99 -9.99
2019/05/20 06:42 EDT    2.46   3.06    9  219   10  66.9  60.4 1011.6 -9.9 -9.999 -99.9 -99.99 -9.99
2019/05/20 06:48 EDT    2.59   3.24   10  218   14  67.5  60.6 1011.7 -9.9 -9.999 -99.9 -99.99 -9.99
2019/05/20 06:54 EDT    2.72   3.36    9  223   11  67.5  60.6 1011.7 -9.9 -9.999 -99.9 -99.99 -9.99
2019/05/20 07:00 EDT    2.85   3.48   10  223   11  67.6  60.6 1011.7 -9.9 -9.999 -99.9 -99.99 -9.99
2019/05/20 07:06 EDT    2.98   3.61   10  226   12  67.5  60.6 1011.7 -9.9 -9.999 -99.9 -99.99 -9.99
2019/05/20 07:12 EDT    3.11   3.75   12  225   13  67.8  60.6 1011.7 -9.9 -9.999 -99.9 -99.99 -9.99
2019/05/20 07:18 EDT    3.23   3.87   12  221   13  68.4  60.6 1011.7 -9.9 -9.999 -99.9 -99.99 -9.99
2019/05/20 07:24 EDT    3.35   4.00   12  224   13  68.4  60.6 1011.8 -9.9 -9.999 -99.9 -99.99 -9.99
2019/05/20 07:30 EDT    3.47   4.11   11  224   14  68.4  60.6 1011.8 -9.9 -9.999 -99.9 -99.99 -9.99
2019/05/20 07:36 EDT    3.59   4.27   12  225   14  68.9  60.6 1011.9 -9.9 -9.999 -99.9 -99.99 -9.99
2019/05/20 07:42 EDT    3.70   4.35   14  228   15  69.8  60.6 1011.9 -9.9 -9.999 -99.9 -99.99 -9.99
2019/05/20 07:48 EDT    3.81   4.47   14  227   17  70.3  60.6 1011.7 -9.9 -9.999 -99.9 -99.99 -9.99
2019/05/20 07:54 EDT    3.91   4.59   15  233   17  69.8  60.6 1011.8 -9.9 -9.999 -99.9 -99.99 -9.99
2019/05/20 08:00 EDT    4.01   4.64   14  233   16  70.0  60.6 1011.9 -9.9 -9.999 -99.9 -99.99 -9.99
2019/05/20 08:06 EDT    4.11   4.77   13  238   16  69.6  60.6 1011.9 -9.9 -9.999 -99.9 -99.99 -9.99
2019/05/20 08:12 EDT    4.20   4.86   14  238   16  70.7  60.6 1011.9 -9.9 -9.999 -99.9 -99.99 -9.99
2019/05/20 08:18 EDT    4.29   4.96   15  237   17  71.8  60.6 1011.9 -9.9 -9.999 -99.9 -99.99 -9.99
2019/05/20 08:24 EDT    4.38   5.06   14  246   17  71.6  60.6 1011.9 -9.9 -9.999 -99.9 -99.99 -9.99
2019/05/20 08:30 EDT    4.46   5.09   15  241   19  72.3  60.6 1011.8 -9.9 -9.999 -99.9 -99.99 -9.99
2019/05/20 08:36 EDT    4.53   5.22   15  246   21  73.0  60.6 1011.8 -9.9 -9.999 -99.9 -99.99 -9.99
2019/05/20 08:42 EDT    4.60   5.26   15  252   21  72.9  60.6 1011.9 -9.9 -9.999 -99.9 -99.99 -9.99
2019/05/20 08:48 EDT    4.66   5.35   16  250   20  73.0  60.6 1011.8 -9.9 -9.999 -99.9 -99.99 -9.99
2019/05/20 08:54 EDT    4.72   5.40   15  253   19  72.9  60.6 1011.7 -9.9 -9.999 -99.9 -99.99 -9.99
2019/05/20 09:00 EDT    4.77   5.47   18  257   22  73.6  60.6 1011.7 -9.9 -9.999 -99.9 -99.99 -9.99
2019/05/20 09:06 EDT    4.81   5.49   16  260   19  72.0  60.6 1011.8 -9.9 -9.999 -99.9 -99.99 -9.99
2019/05/20 09:12 EDT    4.85   5.55   16  261   18  71.6  60.4 1011.8 -9.9 -9.999 -99.9 -99.99 -9.99
2019/05/20 09:18 EDT    4.88   5.57   14  270   17  70.3  60.4 1011.7 -9.9 -9.999 -99.9 -99.99 -9.99
2019/05/20 09:24 EDT    4.90   5.57   12  268   14  69.8  60.4 1011.7 -9.9 -9.999 -99.9 -99.99 -9.99
2019/05/20 09:30 EDT    4.92   5.56   13  276   15  70.2  60.4 1011.7 -9.9 -9.999 -99.9 -99.99 -9.99
2019/05/20 09:36 EDT    4.93   5.61   14  279   15  70.5  60.6 1011.8 -9.9 -9.999 -99.9 -99.99 -9.99
2019/05/20 09:42 EDT    4.93   5.57   13  280   15  70.3  60.6 1011.8 -9.9 -9.999 -99.9 -99.99 -9.99
2019/05/20 09:48 EDT    4.93   5.55   12  276   15  70.0  60.6 1011.8 -9.9 -9.999 -99.9 -99.99 -9.99
2019/05/20 09:54 EDT    4.91   5.54   12  278   14  70.0  60.6 1011.7 -9.9 -9.999 -99.9 -99.99 -9.99
2019/05/20 10:00 EDT    4.89   5.53   11  280   13  69.4  60.6 1011.7 -9.9 -9.999 -99.9 -99.99 -9.99
2019/05/20 10:06 EDT    4.86   5.45    7  268   12  67.5  60.6 1011.6 -9.9 -9.999 -99.9 -99.99 -9.99
2019/05/20 10:12 EDT    4.83   5.43    7  273    9  67.5  60.6 1011.5 -9.9 -9.999 -99.9 -99.99 -9.99
2019/05/20 10:18 EDT    4.79   5.40    9  281   11  69.1  60.6 1011.5 -9.9 -9.999 -99.9 -99.99 -9.99
2019/05/20 10:24 EDT    4.74   5.32    6  263   11  67.3  60.6 1011.4 -9.9 -9.999 -99.9 -99.99 -9.99
2019/05/20 10:30 EDT    4.68   5.24    6  263    7  67.6  60.6 1011.4 -9.9 -9.999 -99.9 -99.99 -9.99
2019/05/20 10:36 EDT    4.62   5.18    9  273   10  69.3  60.8 1011.3 -9.9 -9.999 -99.9 -99.99 -9.99
2019/05/20 10:42 EDT    4.55   5.10   10  278   11  70.2  61.0 1011.3 -9.9 -9.999 -99.9 -99.99 -9.99
2019/05/20 10:48 EDT    4.48   5.02   10  286   11  70.9  61.2 1011.3 -9.9 -9.999 -99.9 -99.99 -9.99
2019/05/20 10:54 EDT    4.40   4.92    8  292   10  70.2  61.2 1011.2 -9.9 -9.999 -99.9 -99.99 -9.99
2019/05/20 11:00 EDT    4.31   4.82   11  291   12  71.8  61.0 1011.1 -9.9 -9.999 -99.9 -99.99 -9.99
2019/05/20 11:06 EDT    4.22   4.70   12  281   14  72.9  61.2 1011.1 -9.9 -9.999 -99.9 -99.99 -9.99
2019/05/20 11:12 EDT    4.13   4.58    7  270   13  70.0  61.2 1011.1 -9.9 -9.999 -99.9 -99.99 -9.99
2019/05/20 11:18 EDT    4.03   4.48   10  283   12  72.0  61.3 1011.0 -9.9 -9.999 -99.9 -99.99 -9.99
2019/05/20 11:24 EDT    3.93   4.37   10  280   13  72.5  61.3 1010.9 -9.9 -9.999 -99.9 -99.99 -9.99
2019/05/20 11:30 EDT    3.82   4.25   15  281   17  74.1  61.5 1010.9 -9.9 -9.999 -99.9 -99.99 -9.99
2019/05/20 11:36 EDT    3.72   4.13   16  277   18  73.9  61.5 1011.0 -9.9 -9.999 -99.9 -99.99 -9.99
2019/05/20 11:42 EDT    3.61   4.03   19  281   21  75.2  61.7 1010.9 -9.9 -9.999 -99.9 -99.99 -9.99
2019/05/20 11:48 EDT    3.50   3.90   20  275   24  76.8  61.7 1010.8 -9.9 -9.999 -99.9 -99.99 -9.99
2019/05/20 11:54 EDT    3.39   3.77   17  275   20  75.7  61.7 1010.9 -9.9 -9.999 -99.9 -99.99 -9.99
2019/05/20 12:00 EDT    3.27   3.65   13  257   18  74.5  61.7 1010.8 -9.9 -9.999 -99.9 -99.99 -9.99
2019/05/20 12:06 EDT    3.16   3.50   16  271   20  75.7  61.9 1010.7 -9.9 -9.999 -99.9 -99.99 -9.99
2019/05/20 12:12 EDT    3.04   3.37   16  267   18  76.1  62.1 1010.6 -9.9 -9.999 -99.9 -99.99 -9.99
2019/05/20 12:18 EDT    2.93   3.26   19  270   21  77.0  62.2 1010.5 -9.9 -9.999 -99.9 -99.99 -9.99
2019/05/20 12:24 EDT    2.81   3.13   14  280   21  73.4  62.4 1010.5 -9.9 -9.999 -99.9 -99.99 -9.99
2019/05/20 12:30 EDT    2.70   3.00   14  288   16  73.9  62.4 1010.5 -9.9 -9.999 -99.9 -99.99 -9.99
2019/05/20 12:36 EDT    2.58   2.89   17  280   18  75.7  62.4 1010.4 -9.9 -9.999 -99.9 -99.99 -9.99
2019/05/20 12:42 EDT    2.47   2.81   17  282   22  75.4  62.6 1010.4 -9.9 -9.999 -99.9 -99.99 -9.99
2019/05/20 12:48 EDT    2.36   2.70   15  271   20  73.8  62.6 1010.4 -9.9 -9.999 -99.9 -99.99 -9.99
2019/05/20 12:54 EDT    2.24   2.60   14  265   16  74.8  62.4 1010.4 -9.9 -9.999 -99.9 -99.99 -9.99
2019/05/20 13:00 EDT    2.13   2.51   14  272   17  74.5  62.6 1010.3 -9.9 -9.999 -99.9 -99.99 -9.99
2019/05/20 13:06 EDT    2.02   2.43   16  280   17  73.8  62.8 1010.2 -9.9 -9.999 -99.9 -99.99 -9.99
2019/05/20 13:12 EDT    1.91   2.33   15  277   20  74.7  62.8 1010.1 -9.9 -9.999 -99.9 -99.99 -9.99
2019/05/20 13:18 EDT    1.81   2.22    9  277   15  73.2  62.8 1009.9 -9.9 -9.999 -99.9 -99.99 -9.99
2019/05/20 13:24 EDT    1.70   2.13   13  281   15  73.8  62.8 1009.8 -9.9 -9.999 -99.9 -99.99 -9.99
2019/05/20 13:30 EDT    1.59   2.04   13  284   16  73.6  62.8 1009.8 -9.9 -9.999 -99.9 -99.99 -9.99
2019/05/20 13:36 EDT    1.49   1.94   12  285   16  73.4  62.8 1009.7 -9.9 -9.999 -99.9 -99.99 -9.99
2019/05/20 13:42 EDT    1.39   1.85   11  287   13  72.7  62.8 1009.7 -9.9 -9.999 -99.9 -99.99 -9.99
2019/05/20 13:48 EDT    1.29   1.76   11  271   14  72.5  62.8 1009.6 -9.9 -9.999 -99.9 -99.99 -9.99
2019/05/20 13:54 EDT    1.19   1.68   12  281   16  75.7  63.0 1009.5 -9.9 -9.999 -99.9 -99.99 -9.99
2019/05/20 14:00 EDT    1.10   1.63   11  271   14  75.0  63.0 1009.4 -9.9 -9.999 -99.9 -99.99 -9.99
2019/05/20 14:06 EDT    1.00   1.55    8  255   11  73.9  63.1 1009.4 -9.9 -9.999 -99.9 -99.99 -9.99
2019/05/20 14:12 EDT    0.91   1.48    8  264   11  74.3  63.1 1009.2 -9.9 -9.999 -99.9 -99.99 -9.99
2019/05/20 14:18 EDT    0.82   1.43   11  266   11  75.4  63.1 1009.1 -9.9 -9.999 -99.9 -99.99 -9.99
2019/05/20 14:24 EDT    0.74   1.35    9  276   12  74.3  63.1 1009.0 -9.9 -9.999 -99.9 -99.99 -9.99
2019/05/20 14:30 EDT    0.66   1.30   13  261   14  76.6  63.1 1009.0 -9.9 -9.999 -99.9 -99.99 -9.99
2019/05/20 14:36 EDT    0.58   1.22   11  266   14  76.8  63.1 1009.0 -9.9 -9.999 -99.9 -99.99 -9.99
2019/05/20 14:42 EDT    0.50   1.16   13  257   15  78.4  63.1 1008.9 -9.9 -9.999 -99.9 -99.99 -9.99
2019/05/20 14:48 EDT    0.43   1.10   11  274   12  77.2  63.3 1008.9 -9.9 -9.999 -99.9 -99.99 -9.99
2019/05/20 14:54 EDT    0.37   1.04   13  249   15  80.4  63.5 1008.7 -9.9 -9.999 -99.9 -99.99 -9.99
2019/05/20 15:00 EDT    0.31   0.98   11  239   14  78.3  63.9 1008.7 -9.9 -9.999 -99.9 -99.99 -9.99
2019/05/20 15:06 EDT    0.25   0.93   13  247   14  78.6  63.7 1008.6 -9.9 -9.999 -99.9 -99.99 -9.99
2019/05/20 15:12 EDT    0.20   0.91   14  230   15  78.3  63.1 1008.4 -9.9 -9.999 -99.9 -99.99 -9.99
2019/05/20 15:18 EDT    0.16   0.86   15  235   17  79.3  63.3 1008.3 -9.9 -9.999 -99.9 -99.99 -9.99
2019/05/20 15:24 EDT    0.13   0.85   22  256   26  82.9  63.5 1008.1 -9.9 -9.999 -99.9 -99.99 -9.99
2019/05/20 15:30 EDT    0.10   0.81   16  247   22  80.4  63.7 1008.1 -9.9 -9.999 -99.9 -99.99 -9.99
2019/05/20 15:36 EDT    0.08   0.81   16  250   19  78.8  63.9 1008.1 -9.9 -9.999 -99.9 -99.99 -9.99
2019/05/20 15:42 EDT    0.06   0.79   21  252   24  81.3  64.0 1008.0 -9.9 -9.999 -99.9 -99.99 -9.99
2019/05/20 15:48 EDT    0.05   0.76   18  255   23  81.1  63.9 1008.0 -9.9 -9.999 -99.9 -99.99 -9.99
2019/05/20 15:54 EDT    0.06   0.75   16  250   18  80.4  63.9 1008.0 -9.9 -9.999 -99.9 -99.99 -9.99
2019/05/20 16:00 EDT    0.07   0.75   12  246   16  77.0  63.9 1008.0 -9.9 -9.999 -99.9 -99.99 -9.99
2019/05/20 16:06 EDT    0.08   0.74   16  246   19  78.8  64.0 1007.9 -9.9 -9.999 -99.9 -99.99 -9.99
2019/05/20 16:12 EDT    0.11   0.75   16  244   19  79.2  64.0 1007.8 -9.9 -9.999 -99.9 -99.99 -9.99
2019/05/20 16:18 EDT    0.15   0.75   14  252   18  79.9  64.0 1007.7 -9.9 -9.999 -99.9 -99.99 -9.99
2019/05/20 16:24 EDT    0.19   0.80   17  248   18  81.5  64.0 1007.6 -9.9 -9.999 -99.9 -99.99 -9.99
2019/05/20 16:30 EDT    0.24   0.83   15  252   17  81.0  64.2 1007.6 -9.9 -9.999 -99.9 -99.99 -9.99
2019/05/20 16:36 EDT    0.30   0.89   12  232   17  80.8  64.6 1007.5 -9.9 -9.999 -99.9 -99.99 -9.99
2019/05/20 16:42 EDT    0.37   0.93   11  221   15  77.7  64.9 1007.4 -9.9 -9.999 -99.9 -99.99 -9.99
2019/05/20 16:48 EDT    0.45   1.02   12  218   14  77.2  64.9 1007.3 -9.9 -9.999 -99.9 -99.99 -9.99
2019/05/20 16:54 EDT    0.54   1.09   14  211   16  78.8  64.8 1007.2 -9.9 -9.999 -99.9 -99.99 -9.99
2019/05/20 17:00 EDT    0.63   1.18   12  218   15  78.3  64.6 1007.2 -9.9 -9.999 -99.9 -99.99 -9.99
2019/05/20 17:06 EDT    0.73   1.28   12  221   14  78.8  64.6 1007.1 -9.9 -9.999 -99.9 -99.99 -9.99
2019/05/20 17:12 EDT    0.83   1.39   15  221   17  79.3  64.6 1007.1 -9.9 -9.999 -99.9 -99.99 -9.99
2019/05/20 17:18 EDT    0.95   1.50   13  239   17  79.9  64.6 1007.1 -9.9 -9.999 -99.9 -99.99 -9.99
2019/05/20 17:24 EDT    1.06   1.63   12  228   14  78.4  65.1 1007.0 -9.9 -9.999 -99.9 -99.99 -9.99
2019/05/20 17:30 EDT    1.19   1.75   11  240   13  77.7  64.8 1007.1 -9.9 -9.999 -99.9 -99.99 -9.99
2019/05/20 17:36 EDT    1.31   1.89   13  238   14  79.9  64.8 1007.2 -9.9 -9.999 -99.9 -99.99 -9.99
2019/05/20 17:42 EDT    1.45   2.03   16  243   18  80.8  64.9 1007.1 -9.9 -9.999 -99.9 -99.99 -9.99
2019/05/20 17:48 EDT    1.58   2.17   19  255   22  81.9  64.8 1007.0 -9.9 -9.999 -99.9 -99.99 -9.99
2019/05/20 17:54 EDT    1.72   2.32   16  256   19  79.7  64.9 1007.1 -9.9 -9.999 -99.9 -99.99 -9.99
2019/05/20 18:00 EDT    1.86   2.46   19  257   21  81.1  65.1 1007.1 -9.9 -9.999 -99.9 -99.99 -9.99
2019/05/20 18:06 EDT    2.01   2.60   15  258   22  78.4  65.1 1007.2 -9.9 -9.999 -99.9 -99.99 -9.99
2019/05/20 18:12 EDT    2.15   2.75   14  261   18  78.6  65.3 1007.2 -9.9 -9.999 -99.9 -99.99 -9.99
2019/05/20 18:18 EDT    2.30   2.91   15  256   16  78.8  65.5 1007.3 -9.9 -9.999 -99.9 -99.99 -9.99
2019/05/20 18:24 EDT    2.44   3.04   16  250   19  79.7  65.3 1007.3 -9.9 -9.999 -99.9 -99.99 -9.99
2019/05/20 18:30 EDT    2.59   3.20   17  242   20  79.3  64.9 1007.4 -9.9 -9.999 -99.9 -99.99 -9.99
2019/05/20 18:36 EDT    2.74   3.35   16  234   17  77.0  65.1 1007.4 -9.9 -9.999 -99.9 -99.99 -9.99
2019/05/20 18:42 EDT    2.88   3.47   14  238   18  77.2  65.1 1007.4 -9.9 -9.999 -99.9 -99.99 -9.99
2019/05/20 18:48 EDT    3.03   3.63   16  234   17  78.6  64.8 1007.3 -9.9 -9.999 -99.9 -99.99 -9.99
2019/05/20 18:54 EDT    3.17   3.77   15  240   18  79.3  64.6 1007.3 -9.9 -9.999 -99.9 -99.99 -9.99
2019/05/20 19:00 EDT    3.31   3.90   14  243   16  79.0  64.4 1007.2 -9.9 -9.999 -99.9 -99.99 -9.99
2019/05/20 19:06 EDT    3.45   4.02   12  243   14  77.4  63.9 1007.2 -9.9 -9.999 -99.9 -99.99 -9.99
2019/05/20 19:12 EDT    3.59   4.17   10  243   12  77.7  64.4 1007.2 -9.9 -9.999 -99.9 -99.99 -9.99
2019/05/20 19:18 EDT    3.72   4.30   10  242   13  76.5  64.4 1007.2 -9.9 -9.999 -99.9 -99.99 -9.99
2019/05/20 19:24 EDT    3.86   4.41   11  246   12  76.6  64.0 1007.4 -9.9 -9.999 -99.9 -99.99 -9.99
2019/05/20 19:30 EDT    3.99   4.54    9  265   11  74.3  63.9 1007.4 -9.9 -9.999 -99.9 -99.99 -9.99
2019/05/20 19:36 EDT    4.11   4.68   11  282   12  76.3  63.7 1007.5 -9.9 -9.999 -99.9 -99.99 -9.99
2019/05/20 19:42 EDT    4.24   4.77    9  278   11  74.3  63.7 1007.5 -9.9 -9.999 -99.9 -99.99 -9.99
2019/05/20 19:48 EDT    4.36   4.88    8  281   11  73.0  63.7 1007.6 -9.9 -9.999 -99.9 -99.99 -9.99
2019/05/20 19:54 EDT    4.47   5.01    8  270   11  71.8  63.7 1007.6 -9.9 -9.999 -99.9 -99.99 -9.99
2019/05/20 20:00 EDT    4.59   5.12   11  273   13  73.0  63.7 1007.7 -9.9 -9.999 -99.9 -99.99 -9.99
2019/05/20 20:06 EDT    4.70   5.21   12  263   12  73.6  63.5 1007.8 -9.9 -9.999 -99.9 -99.99 -9.99
2019/05/20 20:12 EDT    4.80   5.29   12  271   13  72.0  63.5 1007.8 -9.9 -9.999 -99.9 -99.99 -9.99
2019/05/20 20:18 EDT    4.91   5.40   12  272   13  71.8  63.5 1007.9 -9.9 -9.999 -99.9 -99.99 -9.99
2019/05/20 20:24 EDT    5.00   5.47   12  273   13  71.4  63.5 1008.0 -9.9 -9.999 -99.9 -99.99 -9.99
2019/05/20 20:30 EDT    5.10   5.54   11  276   12  70.7  63.5 1008.0 -9.9 -9.999 -99.9 -99.99 -9.99
2019/05/20 20:36 EDT    5.18   5.63   11  278   13  71.2  63.5 1007.9 -9.9 -9.999 -99.9 -99.99 -9.99
2019/05/20 20:42 EDT    5.27   5.71   10  274   11  70.3  63.7 1007.9 -9.9 -9.999 -99.9 -99.99 -9.99
2019/05/20 20:48 EDT    5.35   5.76   11  278   12  70.5  63.9 1007.9 -9.9 -9.999 -99.9 -99.99 -9.99
2019/05/20 20:54 EDT    5.42   5.84   11  291   12  70.0  63.7 1008.0 -9.9 -9.999 -99.9 -99.99 -9.99
2019/05/20 21:00 EDT    5.49   5.90    9  296   13  69.4  63.7 1008.1 -9.9 -9.999 -99.9 -99.99 -9.99
2019/05/20 21:06 EDT    5.55   5.94    8  296   10  68.5  63.5 1008.0 -9.9 -9.999 -99.9 -99.99 -9.99
2019/05/20 21:12 EDT    5.61   5.98    8  291    9  68.7  63.5 1008.1 -9.9 -9.999 -99.9 -99.99 -9.99
2019/05/20 21:18 EDT    5.66   6.04    8  299    9  69.3  63.3 1008.2 -9.9 -9.999 -99.9 -99.99 -9.99
2019/05/20 21:24 EDT    5.70   6.06    9  307   11  70.7  63.1 1008.2 -9.9 -9.999 -99.9 -99.99 -9.99
2019/05/20 21:30 EDT    5.74   6.10    8  297   10  69.6  63.1 1008.3 -9.9 -9.999 -99.9 -99.99 -9.99
2019/05/20 21:36 EDT    5.77   6.12    7  288    9  69.8  63.1 1008.5 -9.9 -9.999 -99.9 -99.99 -9.99
2019/05/20 21:42 EDT    5.80   6.13   10  278   12  70.5  63.1 1008.7 -9.9 -9.999 -99.9 -99.99 -9.99
2019/05/20 21:48 EDT    5.81   6.14   10  278   11  70.3  63.1 1008.7 -9.9 -9.999 -99.9 -99.99 -9.99
2019/05/20 21:54 EDT    5.82   6.14   10  276   11  70.5  63.1 1008.7 -9.9 -9.999 -99.9 -99.99 -9.99
2019/05/20 22:00 EDT    5.83   6.16   10  269   11  69.8  63.1 1008.8 -9.9 -9.999 -99.9 -99.99 -9.99
2019/05/20 22:06 EDT    5.82   6.14    9  267   11  69.1  63.3 1008.8 -9.9 -9.999 -99.9 -99.99 -9.99
2019/05/20 22:12 EDT    5.81   6.12   11  268   11  69.6  63.3 1008.9 -9.9 -9.999 -99.9 -99.99 -9.99
2019/05/20 22:18 EDT    5.79   6.13   10  273   11  69.4  63.3 1008.9 -9.9 -9.999 -99.9 -99.99 -9.99
2019/05/20 22:24 EDT    5.76   6.13   11  273   11  69.3  63.3 1008.9 -9.9 -9.999 -99.9 -99.99 -9.99
2019/05/20 22:30 EDT    5.72   6.09   11  273   12  69.6  63.3 1009.0 -9.9 -9.999 -99.9 -99.99 -9.99
2019/05/20 22:36 EDT    5.68   6.06   11  274   12  70.5  63.3 1009.0 -9.9 -9.999 -99.9 -99.99 -9.99
2019/05/20 22:42 EDT    5.63   6.02   11  271   12  70.0  63.5 1009.0 -9.9 -9.999 -99.9 -99.99 -9.99
2019/05/20 22:48 EDT    5.57   5.98   12  269   13  70.5  63.5 1009.1 -9.9 -9.999 -99.9 -99.99 -9.99
2019/05/20 22:54 EDT    5.50   5.94   12  269   13  70.7  63.5 1009.2 -9.9 -9.999 -99.9 -99.99 -9.99
2019/05/20 23:00 EDT    5.43   5.88   12  267   13  70.7  63.5 1009.1 -9.9 -9.999 -99.9 -99.99 -9.99
2019/05/20 23:06 EDT    5.35   5.82   12  268   13  70.5  63.5 1009.0 -9.9 -9.999 -99.9 -99.99 -9.99
2019/05/20 23:12 EDT    5.27   5.76   11  270   13  69.6  63.5 1009.1 -9.9 -9.999 -99.9 -99.99 -9.99
2019/05/20 23:18 EDT    5.18   5.68   12  269   14  69.6  63.5 1009.2 -9.9 -9.999 -99.9 -99.99 -9.99
2019/05/20 23:24 EDT    5.08   5.60   12  273   14  69.3  63.5 1009.2 -9.9 -9.999 -99.9 -99.99 -9.99
2019/05/20 23:30 EDT    4.98   5.51   13  272   15  69.8  63.5 1009.3 -9.9 -9.999 -99.9 -99.99 -9.99
2019/05/20 23:36 EDT    4.87   5.41   14  269   15  69.6  63.7 1009.2 -9.9 -9.999 -99.9 -99.99 -9.99
2019/05/20 23:42 EDT    4.76   5.28   13  270   15  68.7  63.7 1009.2 -9.9 -9.999 -99.9 -99.99 -9.99
2019/05/20 23:48 EDT    4.64   5.17   13  275   15  68.9  63.7 1009.3 -9.9 -9.999 -99.9 -99.99 -9.99
2019/05/20 23:54 EDT    4.53   5.03   12  284   15  68.4  63.9 1009.6 -9.9 -9.999 -99.9 -99.99 -9.99
2019/05/21 00:00 EDT    4.40   4.87   17  317   20  70.7  64.0 1009.8 -9.9 -9.999 -99.9 -99.99 -9.99
2019/05/21 00:06 EDT    4.28   4.73   19  329   26  70.2  64.2 1010.0 -9.9 -9.999 -99.9 -99.99 -9.99
2019/05/21 00:12 EDT    4.15   4.58   15  335   21  68.7  64.2 1010.0 -9.9 -9.999 -99.9 -99.99 -9.99
2019/05/21 00:18 EDT    4.02   4.45   14  337   19  68.2  64.4 1010.0 -9.9 -9.999 -99.9 -99.99 -9.99
2019/05/21 00:24 EDT    3.89   4.32   13  334   18  66.9  64.4 1010.1 -9.9 -9.999 -99.9 -99.99 -9.99
2019/05/21 00:30 EDT    3.76   4.17   13  339   18  66.9  64.4 1010.1 -9.9 -9.999 -99.9 -99.99 -9.99
2019/05/21 00:36 EDT    3.63   4.00   15  338   20  66.7  64.4 1010.3 -9.9 -9.999 -99.9 -99.99 -9.99
2019/05/21 00:42 EDT    3.49   3.85   13  336   17  65.8  64.4 1010.3 -9.9 -9.999 -99.9 -99.99 -9.99
2019/05/21 00:48 EDT    3.36   3.70   15  332   19  66.6  64.4 1010.2 -9.9 -9.999 -99.9 -99.99 -9.99
2019/05/21 00:54 EDT    3.23   3.51   15  330   20  66.4  64.2 1010.2 -9.9 -9.999 -99.9 -99.99 -9.99
2019/05/21 01:00 EDT    3.09   3.34   12  334   17  65.5  64.2 1010.3 -9.9 -9.999 -99.9 -99.99 -9.99
2019/05/21 01:06 EDT    2.96   3.17   15  339   19  66.2  64.4 1010.3 -9.9 -9.999 -99.9 -99.99 -9.99
2019/05/21 01:12 EDT    2.82   3.04   13  334   18  65.5  64.4 1010.4 -9.9 -9.999 -99.9 -99.99 -9.99
2019/05/21 01:18 EDT    2.69   2.90   11  333   16  65.1  64.4 1010.4 -9.9 -9.999 -99.9 -99.99 -9.99
2019/05/21 01:24 EDT    2.56   2.75   13  329   16  65.1  64.2 1010.5 -9.9 -9.999 -99.9 -99.99 -9.99
2019/05/21 01:30 EDT    2.42   2.64   14  328   18  65.7  64.2 1010.5 -9.9 -9.999 -99.9 -99.99 -9.99
2019/05/21 01:36 EDT    2.29   2.54   13  327   19  65.5  64.2 1010.5 -9.9 -9.999 -99.9 -99.99 -9.99
2019/05/21 01:42 EDT    2.16   2.39   14  323   20  65.5  64.2 1010.6 -9.9 -9.999 -99.9 -99.99 -9.99
2019/05/21 01:48 EDT    2.03   2.28   12  322   18  65.1  64.4 1010.7 -9.9 -9.999 -99.9 -99.99 -9.99
2019/05/21 01:54 EDT    1.91   2.16   14  323   18  65.7  64.2 1010.8 -9.9 -9.999 -99.9 -99.99 -9.99
2019/05/21 02:00 EDT    1.78   2.06   14  324   19  65.1  64.2 1010.9 -9.9 -9.999 -99.9 -99.99 -9.99
2019/05/21 02:06 EDT    1.65   1.93   15  325   18  65.3  64.0 1011.0 -9.9 -9.999 -99.9 -99.99 -9.99
2019/05/21 02:12 EDT    1.53   1.83   12  327   18  64.8  64.0 1011.1 -9.9 -9.999 -99.9 -99.99 -9.99
2019/05/21 02:18 EDT    1.41   1.69   12  326   15  64.6  63.9 1011.2 -9.9 -9.999 -99.9 -99.99 -9.99
2019/05/21 02:24 EDT    1.29   1.56   11  325   14  64.0  63.9 1011.2 -9.9 -9.999 -99.9 -99.99 -9.99
2019/05/21 02:30 EDT    1.17   1.46   13  321   15  64.4  63.9 1011.3 -9.9 -9.999 -99.9 -99.99 -9.99
2019/05/21 02:36 EDT    1.06   1.38   12  318   15  64.2  63.7 1011.4 -9.9 -9.999 -99.9 -99.99 -9.99
2019/05/21 02:42 EDT    0.95   1.27   12  317   17  64.0  63.5 1011.5 -9.9 -9.999 -99.9 -99.99 -9.99
2019/05/21 02:48 EDT    0.84   1.17   18  319   21  64.8  63.7 1011.6 -9.9 -9.999 -99.9 -99.99 -9.99
2019/05/21 02:54 EDT    0.73   1.09   17  314   25  64.4  63.5 1011.6 -9.9 -9.999 -99.9 -99.99 -9.99
2019/05/21 03:00 EDT    0.63   1.00   15  312   21  64.0  63.5 1011.6 -9.9 -9.999 -99.9 -99.99 -9.99
2019/05/21 03:06 EDT    0.53   0.92   18  314   24  64.0  63.5 1011.7 -9.9 -9.999 -99.9 -99.99 -9.99
2019/05/21 03:12 EDT    0.43   0.85   19  315   23  63.7  63.5 1011.9 -9.9 -9.999 -99.9 -99.99 -9.99
2019/05/21 03:18 EDT    0.34   0.76   23  315   28  63.7  63.3 1011.8 -9.9 -9.999 -99.9 -99.99 -9.99
2019/05/21 03:24 EDT    0.26   0.68   21  317   27  63.3  63.5 1011.8 -9.9 -9.999 -99.9 -99.99 -9.99
2019/05/21 03:30 EDT    0.18   0.63   17  318   25  63.1  63.3 1011.9 -9.9 -9.999 -99.9 -99.99 -9.99
2019/05/21 03:36 EDT    0.11   0.54   19  314   23  63.1  63.3 1011.9 -9.9 -9.999 -99.9 -99.99 -9.99
2019/05/21 03:42 EDT    0.04   0.50   18  309   23  62.6  63.3 1011.9 -9.9 -9.999 -99.9 -99.99 -9.99
2019/05/21 03:48 EDT   -0.02   0.40   18  313   23  62.6  63.5 1011.9 -9.9 -9.999 -99.9 -99.99 -9.99
2019/05/21 03:54 EDT   -0.07   0.36   17  313   21  62.2  63.3 1011.8 -9.9 -9.999 -99.9 -99.99 -9.99
2019/05/21 04:00 EDT   -0.12   0.33   17  313   22  62.2  63.3 1011.8 -9.9 -9.999 -99.9 -99.99 -9.99
2019/05/21 04:06 EDT   -0.16   0.26   17  315   21  62.1  63.3 1011.8 -9.9 -9.999 -99.9 -99.99 -9.99
2019/05/21 04:12 EDT   -0.19   0.22   15  317   21  61.7  63.1 1011.8 -9.9 -9.999 -99.9 -99.99 -9.99
2019/05/21 04:18 EDT   -0.21   0.22   12  315   18  61.7  63.1 1011.8 -9.9 -9.999 -99.9 -99.99 -9.99
2019/05/21 04:24 EDT   -0.22   0.18   14  319   16  61.9  63.1 1011.8 -9.9 -9.999 -99.9 -99.99 -9.99
2019/05/21 04:30 EDT   -0.23   0.17   10  316   16  61.3  63.1 1012.0 -9.9 -9.999 -99.9 -99.99 -9.99
2019/05/21 04:36 EDT   -0.22   0.17   12  319   15  61.3  63.1 1012.2 -9.9 -9.999 -99.9 -99.99 -9.99
2019/05/21 04:42 EDT   -0.21   0.20   13  327   17  61.0  63.1 1012.3 -9.9 -9.999 -99.9 -99.99 -9.99
2019/05/21 04:48 EDT   -0.19   0.19   13  325   17  60.8  63.1 1012.3 -9.9 -9.999 -99.9 -99.99 -9.99
2019/05/21 04:54 EDT   -0.16   0.19   17  327   23  61.0  63.1 1012.3 -9.9 -9.999 -99.9 -99.99 -9.99
2019/05/21 05:00 EDT   -0.12   0.23   14  320   20  60.8  63.1 1012.6 -9.9 -9.999 -99.9 -99.99 -9.99
2019/05/21 05:06 EDT   -0.07   0.29   13  317   21  60.6  63.1 1012.7 -9.9 -9.999 -99.9 -99.99 -9.99
2019/05/21 05:12 EDT   -0.02   0.32   13  316   18  60.6  63.1 1012.9 -9.9 -9.999 -99.9 -99.99 -9.99
2019/05/21 05:18 EDT    0.04   0.34   15  316   19  60.4  63.0 1013.0 -9.9 -9.999 -99.9 -99.99 -9.99
2019/05/21 05:24 EDT    0.11   0.43   19  314   24  60.6  63.0 1013.0 -9.9 -9.999 -99.9 -99.99 -9.99
2019/05/21 05:30 EDT    0.19   0.50   19  320   25  60.3  63.0 1013.1 -9.9 -9.999 -99.9 -99.99 -9.99
2019/05/21 05:36 EDT    0.28   0.59   16  315   20  60.1  63.0 1013.0 -9.9 -9.999 -99.9 -99.99 -9.99
2019/05/21 05:42 EDT    0.37   0.69   17  313   19  59.9  63.0 1013.2 -9.9 -9.999 -99.9 -99.99 -9.99
2019/05/21 05:48 EDT    0.46   0.78   17  317   21  59.7  62.8 1013.4 -9.9 -9.999 -99.9 -99.99 -9.99
2019/05/21 05:54 EDT    0.56   0.87   17  314   22  59.7  62.8 1013.3 -9.9 -9.999 -99.9 -99.99 -9.99
2019/05/21 06:00 EDT    0.67   0.95   21  319   24  59.7  62.8 1013.1 -9.9 -9.999 -99.9 -99.99 -9.99
2019/05/21 06:06 EDT    0.78   1.05   18  317   25  59.4  62.8 1013.1 -9.9 -9.999 -99.9 -99.99 -9.99
2019/05/21 06:12 EDT    0.90   1.18   17  317   22  59.5  62.8 1013.1 -9.9 -9.999 -99.9 -99.99 -9.99
2019/05/21 06:18 EDT    1.01   1.28   18  320   23  59.5  62.6 1013.1 -9.9 -9.999 -99.9 -99.99 -9.99
2019/05/21 06:24 EDT    1.13   1.38   15  311   20  59.5  62.8 1013.1 -9.9 -9.999 -99.9 -99.99 -9.99
2019/05/21 06:30 EDT    1.26   1.49   17  311   23  59.5  62.8 1013.3 -9.9 -9.999 -99.9 -99.99 -9.99
2019/05/21 06:36 EDT    1.38   1.58   17  313   22  59.5  62.8 1013.4 -9.9 -9.999 -99.9 -99.99 -9.99
2019/05/21 06:42 EDT    1.51   1.71   17  314   22  59.4  62.8 1013.6 -9.9 -9.999 -99.9 -99.99 -9.99
2019/05/21 06:48 EDT    1.63   1.82   17  313   22  59.4  62.6 1013.7 -9.9 -9.999 -99.9 -99.99 -9.99
2019/05/21 06:54 EDT    1.76   1.92   18  317   22  59.4  62.6 1013.8 -9.9 -9.999 -99.9 -99.99 -9.99
2019/05/21 07:00 EDT    1.89   2.02   17  314   21  59.4  62.6 1013.9 -9.9 -9.999 -99.9 -99.99 -9.99
2019/05/21 07:06 EDT    2.02   2.15   17  315   22  59.4  62.6 1014.0 -9.9 -9.999 -99.9 -99.99 -9.99
2019/05/21 07:12 EDT    2.14   2.27   19  313   23  59.4  62.6 1014.3 -9.9 -9.999 -99.9 -99.99 -9.99
2019/05/21 07:18 EDT    2.27   2.41   17  312   23  59.0  62.6 1014.4 -9.9 -9.999 -99.9 -99.99 -9.99
2019/05/21 07:24 EDT    2.39   2.53   19  315   22  59.2  62.6 1014.5 -9.9 -9.999 -99.9 -99.99 -9.99
2019/05/21 07:30 EDT    2.51   2.63   17  311   21  59.0  62.4 1014.7 -9.9 -9.999 -99.9 -99.99 -9.99
2019/05/21 07:36 EDT    2.64   2.80   16  317   20  58.8  62.4 1014.8 -9.9 -9.999 -99.9 -99.99 -9.99
2019/05/21 07:42 EDT    2.75   2.91   15  316   18  58.6  62.4 1014.8 -9.9 -9.999 -99.9 -99.99 -9.99
2019/05/21 07:48 EDT    2.87   3.03   15  322   19  58.6  62.4 1014.9 -9.9 -9.999 -99.9 -99.99 -9.99
2019/05/21 07:54 EDT    2.99   3.16   21  329   27  58.3  62.4 1015.0 -9.9 -9.999 -99.9 -99.99 -9.99
2019/05/21 08:00 EDT    3.10   3.24   20  328   27  58.1  62.4 1015.0 -9.9 -9.999 -99.9 -99.99 -9.99
2019/05/21 08:06 EDT    3.21   3.38   19  331   26  57.9  62.4 1015.1 -9.9 -9.999 -99.9 -99.99 -9.99
2019/05/21 08:12 EDT    3.31   3.50   23  314   27  58.1  62.4 1015.1 -9.9 -9.999 -99.9 -99.99 -9.99
2019/05/21 08:18 EDT    3.42   3.62   18  324   26  58.1  62.4 1015.1 -9.9 -9.999 -99.9 -99.99 -9.99
2019/05/21 08:24 EDT    3.52   3.69   17  333   24  58.1  62.4 1015.1 -9.9 -9.999 -99.9 -99.99 -9.99
2019/05/21 08:30 EDT    3.62   3.81   17  335   23  57.9  62.4 1015.1 -9.9 -9.999 -99.9 -99.99 -9.99
2019/05/21 08:36 EDT    3.71   3.89   15  332   21  58.1  62.4 1015.1 -9.9 -9.999 -99.9 -99.99 -9.99
2019/05/21 08:42 EDT    3.80   3.97   15  334   22  58.1  62.2 1015.1 -9.9 -9.999 -99.9 -99.99 -9.99
2019/05/21 08:48 EDT    3.89   4.05   17  324   24  57.6  62.2 1015.2 -9.9 -9.999 -99.9 -99.99 -9.99
2019/05/21 08:54 EDT    3.98   4.13   18  328   24  57.7  62.2 1015.2 -9.9 -9.999 -99.9 -99.99 -9.99
2019/05/21 09:00 EDT    4.06   4.18   21  320   27  57.4  62.2 1015.2 -9.9 -9.999 -99.9 -99.99 -9.99
2019/05/21 09:06 EDT    4.14   4.24   19  315   26  57.0  62.2 1015.3 -9.9 -9.999 -99.9 -99.99 -9.99
2019/05/21 09:12 EDT    4.21   4.31   20  313   23  56.8  62.2 1015.3 -9.9 -9.999 -99.9 -99.99 -9.99
2019/05/21 09:18 EDT    4.28   4.40   19  309   24  57.0  62.2 1015.3 -9.9 -9.999 -99.9 -99.99 -9.99
2019/05/21 09:24 EDT    4.34   4.44   17  317   23  57.0  62.2 1015.4 -9.9 -9.999 -99.9 -99.99 -9.99
2019/05/21 09:30 EDT    4.40   4.51   18  317   22  57.4  62.2 1015.5 -9.9 -9.999 -99.9 -99.99 -9.99
2019/05/21 09:36 EDT    4.46   4.60   17  321   26  57.6  62.2 1015.5 -9.9 -9.999 -99.9 -99.99 -9.99
2019/05/21 09:42 EDT    4.51   4.61   19  317   22  57.6  62.2 1015.3 -9.9 -9.999 -99.9 -99.99 -9.99
2019/05/21 09:48 EDT    4.56   4.70   20  329   27  57.7  62.2 1015.6 -9.9 -9.999 -99.9 -99.99 -9.99
2019/05/21 09:54 EDT    4.59   4.75   20  325   25  57.6  62.2 1015.6 -9.9 -9.999 -99.9 -99.99 -9.99
2019/05/21 10:00 EDT    4.63   4.81   15  332   22  58.3  62.2 1015.7 -9.9 -9.999 -99.9 -99.99 -9.99
2019/05/21 10:06 EDT    4.66   4.80   15  324   19  58.3  62.2 1015.5 -9.9 -9.999 -99.9 -99.99 -9.99
2019/05/21 10:12 EDT    4.68   4.87   14  324   21  58.5  62.2 1015.7 -9.9 -9.999 -99.9 -99.99 -9.99
2019/05/21 10:18 EDT    4.69   4.86   16  312   22  58.1  62.2 1015.8 -9.9 -9.999 -99.9 -99.99 -9.99
2019/05/21 10:24 EDT    4.70   4.89   17  310   19  57.7  62.2 1015.7 -9.9 -9.999 -99.9 -99.99 -9.99
2019/05/21 10:30 EDT    4.70   4.88   17  306   20  57.9  62.2 1015.6 -9.9 -9.999 -99.9 -99.99 -9.99
2019/05/21 10:36 EDT    4.70   4.83   15  308   20  57.7  62.2 1015.7 -9.9 -9.999 -99.9 -99.99 -9.99
2019/05/21 10:42 EDT    4.69   4.83   16  307   20  57.6  62.2 1015.8 -9.9 -9.999 -99.9 -99.99 -9.99
2019/05/21 10:48 EDT    4.67   4.83   16  304   19  58.3  62.2 1015.7 -9.9 -9.999 -99.9 -99.99 -9.99
2019/05/21 10:54 EDT    4.65   4.78   19  307   21  58.3  62.2 1015.7 -9.9 -9.999 -99.9 -99.99 -9.99
2019/05/21 11:00 EDT    4.62   4.78   19  309   22  58.5  62.2 1015.7 -9.9 -9.999 -99.9 -99.99 -9.99
2019/05/21 11:06 EDT    4.58   4.71   18  309   21  58.6  62.1 1015.6 -9.9 -9.999 -99.9 -99.99 -9.99
2019/05/21 11:12 EDT    4.53   4.70   20  308   23  58.8  62.1 1015.7 -9.9 -9.999 -99.9 -99.99 -9.99
2019/05/21 11:18 EDT    4.48   4.67   19  308   23  59.2  62.1 1015.7 -9.9 -9.999 -99.9 -99.99 -9.99
2019/05/21 11:24 EDT    4.43   4.62   19  310   21  59.5  62.1 1015.9 -9.9 -9.999 -99.9 -99.99 -9.99
2019/05/21 11:30 EDT    4.37   4.55   17  314   22  60.1  62.1 1015.7 -9.9 -9.999 -99.9 -99.99 -9.99
2019/05/21 11:36 EDT    4.30   4.50   19  316   24  60.3  62.1 1015.7 -9.9 -9.999 -99.9 -99.99 -9.99
2019/05/21 11:42 EDT    4.23   4.44   14  312   21  60.3  62.1 1015.7 -9.9 -9.999 -99.9 -99.99 -9.99
2019/05/21 11:48 EDT    4.15   4.34   17  309   24  60.6  62.1 1015.6 -9.9 -9.999 -99.9 -99.99 -9.99
2019/05/21 11:54 EDT    4.07   4.30   17  318   22  61.2  62.1 1015.6 -9.9 -9.999 -99.9 -99.99 -9.99
2019/05/21 12:00 EDT    3.98   4.18   16  303   19  60.3  62.1 1015.5 -9.9 -9.999 -99.9 -99.99 -9.99
2019/05/21 12:06 EDT    3.89   4.10   14  308   20  60.6  62.1 1015.6 -9.9 -9.999 -99.9 -99.99 -9.99
2019/05/21 12:12 EDT    3.80   4.00   15  308   19  60.8  62.1 1015.5 -9.9 -9.999 -99.9 -99.99 -9.99
2019/05/21 12:18 EDT    3.70   3.89   17  311   20  61.7  62.1 1015.5 -9.9 -9.999 -99.9 -99.99 -9.99
2019/05/21 12:24 EDT    3.60   3.76   17  319   21  62.2  62.1 1015.6 -9.9 -9.999 -99.9 -99.99 -9.99
2019/05/21 12:30 EDT    3.50   3.65   17  317   23  62.1  62.1 1015.5 -9.9 -9.999 -99.9 -99.99 -9.99
2019/05/21 12:36 EDT    3.40   3.55   19  309   21  62.1  62.1 1015.5 -9.9 -9.999 -99.9 -99.99 -9.99
2019/05/21 12:42 EDT    3.29   3.41   16  305   18  61.3  62.1 1015.5 -9.9 -9.999 -99.9 -99.99 -9.99
2019/05/21 12:48 EDT    3.19   3.29   16  303   19  61.5  62.1 1015.3 -9.9 -9.999 -99.9 -99.99 -9.99
2019/05/21 12:54 EDT    3.08   3.19   15  305   19  61.9  62.1 1015.2 -9.9 -9.999 -99.9 -99.99 -9.99
2019/05/21 13:00 EDT    2.98   3.08   13  314   17  63.0  62.2 1015.2 -9.9 -9.999 -99.9 -99.99 -9.99
2019/05/21 13:06 EDT    2.87   2.93   15  309   19  62.6  62.2 1015.1 -9.9 -9.999 -99.9 -99.99 -9.99
2019/05/21 13:12 EDT    2.76   2.84   17  319   20  63.3  62.2 1015.0 -9.9 -9.999 -99.9 -99.99 -9.99
2019/05/21 13:18 EDT    2.66   2.77   15  312   18  63.1  62.4 1015.2 -9.9 -9.999 -99.9 -99.99 -9.99
2019/05/21 13:24 EDT    2.55   2.65   16  317   19  63.7  62.2 1015.1 -9.9 -9.999 -99.9 -99.99 -9.99
2019/05/21 13:30 EDT    2.45   2.54   14  310   18  62.8  62.2 1015.2 -9.9 -9.999 -99.9 -99.99 -9.99
2019/05/21 13:36 EDT    2.34   2.44   13  312   17  63.9  62.2 1015.0 -9.9 -9.999 -99.9 -99.99 -9.99
2019/05/21 13:42 EDT    2.24   2.35   13  315   17  63.7  62.2 1015.1 -9.9 -9.999 -99.9 -99.99 -9.99
2019/05/21 13:48 EDT    2.14   2.25   17  306   19  63.3  62.2 1015.0 -9.9 -9.999 -99.9 -99.99 -9.99
2019/05/21 13:54 EDT    2.03   2.14   16  303   18  63.1  62.2 1015.0 -9.9 -9.999 -99.9 -99.99 -9.99
2019/05/21 14:00 EDT    1.94   2.04   15  304   18  63.3  62.2 1014.9 -9.9 -9.999 -99.9 -99.99 -9.99
2019/05/21 14:06 EDT    1.84   1.95   16  317   20  64.4  62.2 1015.0 -9.9 -9.999 -99.9 -99.99 -9.99
2019/05/21 14:12 EDT    1.74   1.90   17  302   23  63.3  62.2 1015.0 -9.9 -9.999 -99.9 -99.99 -9.99
2019/05/21 14:18 EDT    1.65   1.76   16  302   19  63.7  62.4 1015.0 -9.9 -9.999 -99.9 -99.99 -9.99
2019/05/21 14:24 EDT    1.55   1.70   16  304   20  63.9  62.4 1015.0 -9.9 -9.999 -99.9 -99.99 -9.99
2019/05/21 14:30 EDT    1.46   1.62   14  298   17  63.5  62.2 1014.9 -9.9 -9.999 -99.9 -99.99 -9.99
2019/05/21 14:36 EDT    1.37   1.51   16  306   18  64.4  62.2 1014.8 -9.9 -9.999 -99.9 -99.99 -9.99
2019/05/21 14:42 EDT    1.28   1.42   16  303   19  64.6  62.2 1014.9 -9.9 -9.999 -99.9 -99.99 -9.99
2019/05/21 14:48 EDT    1.20   1.36   13  292   16  64.0  62.4 1014.8 -9.9 -9.999 -99.9 -99.99 -9.99
2019/05/21 14:54 EDT    1.12   1.28   12  280   16  64.0  62.4 1014.7 -9.9 -9.999 -99.9 -99.99 -9.99
2019/05/21 15:00 EDT    1.04   1.20   13  293   16  64.2  62.4 1014.6 -9.9 -9.999 -99.9 -99.99 -9.99
2019/05/21 15:06 EDT    0.96   1.11   11  287   17  64.6  62.4 1014.6 -9.9 -9.999 -99.9 -99.99 -9.99
2019/05/21 15:12 EDT    0.89   1.08    9  285   14  64.8  62.4 1014.8 -9.9 -9.999 -99.9 -99.99 -9.99
2019/05/21 15:18 EDT    0.81   1.03   11  288   15  64.6  62.4 1014.6 -9.9 -9.999 -99.9 -99.99 -9.99
2019/05/21 15:24 EDT    0.75   0.98   11  278   13  64.8  62.4 1014.6 -9.9 -9.999 -99.9 -99.99 -9.99
2019/05/21 15:30 EDT    0.68   0.93    9  290   12  64.8  62.4 1014.5 -9.9 -9.999 -99.9 -99.99 -9.99
2019/05/21 15:36 EDT    0.63   0.89    9  291   11  65.1  62.4 1014.6 -9.9 -9.999 -99.9 -99.99 -9.99
2019/05/21 15:42 EDT    0.57   0.86   13  320   17  68.2  62.4 1014.5 -9.9 -9.999 -99.9 -99.99 -9.99
2019/05/21 15:48 EDT    0.52 -99.99 -999 -999 -999 -99.9 -99.9 -999.9 -9.9 -9.999 -99.9 -99.99 -9.99
2019/05/21 15:54 EDT    0.48 -99.99 -999 -999 -999 -99.9 -99.9 -999.9 -9.9 -9.999 -99.9 -99.99 -9.99
2019/05/21 16:00 EDT    0.44 -99.99 -999 -999 -999 -99.9 -99.9 -999.9 -9.9 -9.999 -99.9 -99.99 -9.99
2019/05/21 16:06 EDT    0.41   0.75   13  309   16  68.7  62.4 1014.4 -9.9 -9.999 -99.9 -99.99 -9.99
2019/05/21 16:12 EDT    0.38   0.75   13  325   18  68.4  62.4 1014.4 -9.9 -9.999 -99.9 -99.99 -9.99
2019/05/21 16:18 EDT    0.36   0.71   14  315   21  69.1  62.6 1014.6 -9.9 -9.999 -99.9 -99.99 -9.99
2019/05/21 16:24 EDT    0.35   0.72   12  312   17  68.2  62.6 1014.6 -9.9 -9.999 -99.9 -99.99 -9.99
2019/05/21 16:30 EDT    0.34   0.75   14  325   17  69.1  62.6 1014.6 -9.9 -9.999 -99.9 -99.99 -9.99
2019/05/21 16:36 EDT    0.34   0.71   15  316   18  68.5  62.6 1014.7 -9.9 -9.999 -99.9 -99.99 -9.99
2019/05/21 16:42 EDT    0.35   0.74   13  316   16  68.5  62.6 1014.7 -9.9 -9.999 -99.9 -99.99 -9.99
2019/05/21 16:48 EDT    0.37   0.81   13  322   18  68.7  62.6 1014.7 -9.9 -9.999 -99.9 -99.99 -9.99
2019/05/21 16:54 EDT    0.39   0.81   15  318   19  68.9  62.6 1014.8 -9.9 -9.999 -99.9 -99.99 -9.99
2019/05/21 17:00 EDT    0.42   0.85   16  314   20  70.0  62.4 1014.8 -9.9 -9.999 -99.9 -99.99 -9.99
2019/05/21 17:06 EDT    0.46   0.91   15  321   20  69.8  62.4 1014.8 -9.9 -9.999 -99.9 -99.99 -9.99
2019/05/21 17:12 EDT    0.51   1.00   17  313   22  69.1  62.4 1015.1 -9.9 -9.999 -99.9 -99.99 -9.99
2019/05/21 17:18 EDT    0.57   1.03   16  328   22  69.4  62.4 1015.2 -9.9 -9.999 -99.9 -99.99 -9.99
2019/05/21 17:24 EDT    0.63   1.10   13  334   21  69.8  62.4 1015.2 -9.9 -9.999 -99.9 -99.99 -9.99
2019/05/21 17:30 EDT    0.70   1.20   14  325   18  69.3  62.4 1015.3 -9.9 -9.999 -99.9 -99.99 -9.99
2019/05/21 17:36 EDT    0.78   1.29   14  321   18  68.7  62.4 1015.4 -9.9 -9.999 -99.9 -99.99 -9.99
2019/05/21 17:42 EDT    0.86   1.36   13  318   16  67.6  62.4 1015.5 -9.9 -9.999 -99.9 -99.99 -9.99
2019/05/21 17:48 EDT    0.95   1.46   15  328   19  69.1  62.6 1015.5 -9.9 -9.999 -99.9 -99.99 -9.99
2019/05/21 17:54 EDT    1.05   1.57   17  332   21  69.3  62.6 1015.6 -9.9 -9.999 -99.9 -99.99 -9.99
2019/05/21 18:00 EDT    1.15   1.63   15  332   20  69.1  62.4 1015.6 -9.9 -9.999 -99.9 -99.99 -9.99
2019/05/21 18:06 EDT    1.26   1.74   16  330   22  68.7  62.4 1015.7 -9.9 -9.999 -99.9 -99.99 -9.99
2019/05/21 18:12 EDT    1.37   1.86   15  325   18  67.8  62.4 1015.7 -9.9 -9.999 -99.9 -99.99 -9.99
2019/05/21 18:18 EDT    1.49   1.94   11  326   16  68.0  62.4 1015.9 -9.9 -9.999 -99.9 -99.99 -9.99
2019/05/21 18:24 EDT    1.61   2.06   13  331   18  68.4  62.4 1015.9 -9.9 -9.999 -99.9 -99.99 -9.99
2019/05/21 18:30 EDT    1.73   2.13   12  327   16  68.2  62.4 1015.9 -9.9 -9.999 -99.9 -99.99 -9.99
2019/05/21 18:36 EDT    1.86   2.27   12  324   17  67.6  62.4 1016.0 -9.9 -9.999 -99.9 -99.99 -9.99
2019/05/21 18:42 EDT    1.99   2.34   14  318   18  67.3  62.4 1016.0 -9.9 -9.999 -99.9 -99.99 -9.99
2019/05/21 18:48 EDT    2.12   2.46   12  326   17  66.9  62.4 1016.0 -9.9 -9.999 -99.9 -99.99 -9.99
2019/05/21 18:54 EDT    2.25   2.59   14  315   17  67.5  62.6 1016.1 -9.9 -9.999 -99.9 -99.99 -9.99
2019/05/21 19:00 EDT    2.38   2.71   13  319   18  67.3  62.6 1016.2 -9.9 -9.999 -99.9 -99.99 -9.99
2019/05/21 19:06 EDT    2.52   2.82   14  320   19  67.1  62.6 1016.2 -9.9 -9.999 -99.9 -99.99 -9.99
2019/05/21 19:12 EDT    2.65   2.95   16  316   20  67.1  62.6 1016.3 -9.9 -9.999 -99.9 -99.99 -9.99
2019/05/21 19:18 EDT    2.78   3.08   15  317   19  67.1  62.6 1016.5 -9.9 -9.999 -99.9 -99.99 -9.99
2019/05/21 19:24 EDT    2.91   3.20   15  314   18  66.9  62.6 1016.6 -9.9 -9.999 -99.9 -99.99 -9.99
2019/05/21 19:30 EDT    3.04   3.32   18  315   21  67.1  62.8 1016.7 -9.9 -9.999 -99.9 -99.99 -9.99
2019/05/21 19:36 EDT    3.17   3.44   16  323   21  66.7  62.8 1016.9 -9.9 -9.999 -99.9 -99.99 -9.99
2019/05/21 19:42 EDT    3.29   3.57   14  330   19  66.9  62.8 1017.0 -9.9 -9.999 -99.9 -99.99 -9.99
2019/05/21 19:48 EDT    3.42   3.65   15  327   20  66.9  62.6 1017.2 -9.9 -9.999 -99.9 -99.99 -9.99
2019/05/21 19:54 EDT    3.54   3.78   15  323   18  66.7  62.6 1017.2 -9.9 -9.999 -99.9 -99.99 -9.99
2019/05/21 20:00 EDT    3.66   3.89   15  328   21  66.7  62.6 1017.2 -9.9 -9.999 -99.9 -99.99 -9.99
2019/05/21 20:06 EDT    3.78   4.00   16  330   21  66.7  62.6 1017.4 -9.9 -9.999 -99.9 -99.99 -9.99
2019/05/21 20:12 EDT    3.89   4.08   14  331   19  66.0  62.6 1017.5 -9.9 -9.999 -99.9 -99.99 -9.99
2019/05/21 20:18 EDT    4.00   4.20   13  332   18  66.0  62.6 1017.6 -9.9 -9.999 -99.9 -99.99 -9.99
2019/05/21 20:24 EDT    4.11   4.29   14  331   20  66.2  62.8 1017.7 -9.9 -9.999 -99.9 -99.99 -9.99
2019/05/21 20:30 EDT    4.21   4.36   16  326   19  65.8  62.6 1017.8 -9.9 -9.999 -99.9 -99.99 -9.99
2019/05/21 20:36 EDT    4.31   4.44   13  332   17  65.8  62.6 1018.0 -9.9 -9.999 -99.9 -99.99 -9.99
2019/05/21 20:42 EDT    4.41   4.54   15  332   19  66.0  62.6 1018.1 -9.9 -9.999 -99.9 -99.99 -9.99
2019/05/21 20:48 EDT    4.51   4.62   14  331   19  65.3  62.6 1018.2 -9.9 -9.999 -99.9 -99.99 -9.99
2019/05/21 20:54 EDT    4.60   4.68   10  351   18  64.9  62.6 1018.4 -9.9 -9.999 -99.9 -99.99 -9.99
2019/05/21 21:00 EDT    4.69   4.82   10  354   18  64.4  62.6 1018.5 -9.9 -9.999 -99.9 -99.99 -9.99
2019/05/21 21:06 EDT    4.77   4.87   15  349   21  64.8  62.6 1018.6 -9.9 -9.999 -99.9 -99.99 -9.99
2019/05/21 21:12 EDT    4.85   4.94   12  349   19  64.2  62.6 1018.7 -9.9 -9.999 -99.9 -99.99 -9.99
2019/05/21 21:18 EDT    4.93   5.05   11  342   17  63.7  62.6 1018.8 -9.9 -9.999 -99.9 -99.99 -9.99
2019/05/21 21:24 EDT    5.00   5.10   13  351   21  64.2  62.6 1019.1 -9.9 -9.999 -99.9 -99.99 -9.99
2019/05/21 21:30 EDT    5.07   5.19    8  359   15  63.0  62.6 1019.3 -9.9 -9.999 -99.9 -99.99 -9.99
2019/05/21 21:36 EDT    5.14   5.26    9  354   16  63.0  62.6 1019.2 -9.9 -9.999 -99.9 -99.99 -9.99
2019/05/21 21:42 EDT    5.20   5.32   10  353   20  63.0  62.6 1019.4 -9.9 -9.999 -99.9 -99.99 -9.99
2019/05/21 21:48 EDT    5.25   5.39   10  354   15  62.4  62.4 1019.6 -9.9 -9.999 -99.9 -99.99 -9.99
2019/05/21 21:54 EDT    5.30   5.41   11  353   16  63.0  62.4 1019.7 -9.9 -9.999 -99.9 -99.99 -9.99
2019/05/21 22:00 EDT    5.35   5.44   11  351   18  62.6  62.4 1019.8 -9.9 -9.999 -99.9 -99.99 -9.99
2019/05/21 22:06 EDT    5.39   5.47   11  351   18  62.4  62.6 1019.9 -9.9 -9.999 -99.9 -99.99 -9.99
2019/05/21 22:12 EDT    5.43   5.47   11  353   17  62.4  62.4 1020.0 -9.9 -9.999 -99.9 -99.99 -9.99
2019/05/21 22:18 EDT    5.46   5.51   12  350   19  62.4  62.4 1020.1 -9.9 -9.999 -99.9 -99.99 -9.99
2019/05/21 22:24 EDT    5.48 -99.99 -999 -999 -999 -99.9 -99.9 -999.9 -9.9 -9.999 -99.9 -99.99 -9.99

Revised: 08/08/2018
NOAA / National Ocean Service
Web site owner: Center for Operational Oceanographic Products and Services